Vuilleumier, Laurent (2010): Radiosonde measurements from station Payerne (2009-09) [dataset]. Swiss Meteorological Agency, Payerne, PANGAEA, https://doi.org/10.1594/PANGAEA.735475
Always quote citation above when using data! You can download the citation in several formats below.
Published: 2010-03-22 • DOI registered: 2010-04-19
Other version:
Vuilleumier, Laurent (2010): BSRN Station-to-archive file for station Payerne (2009-09) [dataset]. ftp://ftp.bsrn.awi.de/pay/pay0909.dat.gz
Project(s):
Coverage:
Latitude: 46.812300 * Longitude: 6.942200
Date/Time Start: 2009-09-01T00:00:00 * Date/Time End: 2009-09-30T16:00:00
Minimum ALTITUDE: 491 m * Maximum ALTITUDE: 36373 m
Event(s):
PAY (Payerne) * Latitude: 46.812300 * Longitude: 6.942200 * Date/Time: 1992-09-01T00:00:00 * Elevation: 491.0 m * Location: Switzerland * Method/Device: Monitoring station (MONS) * Comment: BSRN station no: 21; Surface type: cultivated; Topography type: hilly, rural; Horizon: doi:10.1594/PANGAEA.947035; Station scientist: Laurent Vuilleumier (laurent.vuilleumier@meteoswiss.ch)
Parameter(s):
| # | Name | Short Name | Unit | Principal Investigator | Method/Device | Comment |
|---|---|---|---|---|---|---|
| 1 | DATE/TIME | Date/Time | Geocode | |||
| 2 | ALTITUDE | Altitude | m | Geocode | ||
| 3 | Pressure, at given altitude | PPPP | hPa | Vuilleumier, Laurent | Radiosonde, METEOLABOR AG, SRSCH | |
| 4 | Temperature, air | TTT | °C | Vuilleumier, Laurent | Radiosonde, METEOLABOR AG, SRSCH | |
| 5 | Dew/frost point | TdTdTd | °C | Vuilleumier, Laurent | Radiosonde, METEOLABOR AG, SRSCH | |
| 6 | Wind direction | dd | deg | Vuilleumier, Laurent | Radiosonde, METEOLABOR AG, SRSCH | |
| 7 | Wind speed | ff | m/s | Vuilleumier, Laurent | Radiosonde, METEOLABOR AG, SRSCH | |
| 8 | Ozone, partial pressure | pO3 | mPa | Vuilleumier, Laurent | Radiosonde, METEOLABOR AG, SRSCH |
License:
Size:
292249 data points
Data
| 1 Date/Time | 2 Altitude [m] | 3 PPPP [hPa] | 4 TTT [°C] | 5 TdTdTd [°C] | 6 dd [deg] | 7 ff [m/s] | 8 pO3 [mPa] |
|---|---|---|---|---|---|---|---|
| 2009-09-01T00:00 | 491 | 960 | 16.0 | 13.3 | 270 | 0 | |
| 2009-09-01T00:00 | 523 | 956 | 19.6 | 12.6 | |||
| 2009-09-01T00:00 | 536 | 955 | 20.0 | 12.3 | |||
| 2009-09-01T00:00 | 543 | 954 | 20.1 | 12.1 | |||
| 2009-09-01T00:00 | 577 | 950 | 20.6 | 11.8 | |||
| 2009-09-01T00:00 | 587 | 949 | 20.9 | 11.7 | |||
| 2009-09-01T00:00 | 591 | 949 | 20.9 | 11.6 | |||
| 2009-09-01T00:00 | 604 | 947 | 21.1 | 11.8 | 225 | 5 | |
| 2009-09-01T00:00 | 617 | 946 | 21.3 | 11.9 | |||
| 2009-09-01T00:00 | 625 | 945 | 21.5 | 11.9 | |||
| 2009-09-01T00:00 | 629 | 945 | 21.4 | 12.0 | |||
| 2009-09-01T00:00 | 647 | 943 | 21.7 | 12.2 | 230 | 7 | |
| 2009-09-01T00:00 | 651 | 942 | 21.7 | 12.3 | |||
| 2009-09-01T00:00 | 668 | 940 | 21.8 | 12.4 | |||
| 2009-09-01T00:00 | 673 | 940 | 21.8 | 12.5 | |||
| 2009-09-01T00:00 | 700 | 937 | 21.8 | 12.7 | 230 | 8 | |
| 2009-09-01T00:00 | 715 | 935 | 21.7 | 12.8 | |||
| 2009-09-01T00:00 | 719 | 935 | 21.7 | 12.8 | |||
| 2009-09-01T00:00 | 742 | 932 | 21.7 | 13.0 | |||
| 2009-09-01T00:00 | 745 | 932 | 21.6 | 13.1 | 228 | 9 | |
| 2009-09-01T00:00 | 753 | 931 | 21.6 | 13.2 | |||
| 2009-09-01T00:00 | 756 | 931 | 21.5 | 13.3 | |||
| 2009-09-01T00:00 | 778 | 929 | 21.3 | 13.4 | |||
| 2009-09-01T00:00 | 789 | 927 | 21.3 | 13.5 | 227 | 9 | |
| 2009-09-01T00:00 | 794 | 927 | 21.2 | 13.5 | |||
| 2009-09-01T00:00 | 799 | 926 | 21.2 | 13.5 | |||
| 2009-09-01T00:00 | 812 | 925 | 21.1 | 13.6 | |||
| 2009-09-01T00:00 | 824 | 924 | 21.0 | 13.6 | |||
| 2009-09-01T00:00 | 836 | 922 | 20.9 | 13.6 | 227 | 10 | |
| 2009-09-01T00:00 | 840 | 922 | 20.8 | 13.6 | |||
| 2009-09-01T00:00 | 865 | 919 | 20.6 | 13.7 | |||
| 2009-09-01T00:00 | 876 | 918 | 20.5 | 13.7 | |||
| 2009-09-01T00:00 | 881 | 918 | 20.4 | 13.7 | |||
| 2009-09-01T00:00 | 887 | 917 | 20.4 | 13.8 | 228 | 11 | |
| 2009-09-01T00:00 | 914 | 914 | 20.2 | 13.8 | |||
| 2009-09-01T00:00 | 925 | 913 | 20.0 | 13.9 | |||
| 2009-09-01T00:00 | 930 | 912 | 20.0 | 13.9 | |||
| 2009-09-01T00:00 | 941 | 911 | 19.9 | 13.9 | 230 | 11 | |
| 2009-09-01T00:00 | 963 | 909 | 19.8 | 13.9 | |||
| 2009-09-01T00:00 | 974 | 908 | 19.6 | 13.9 | |||
| 2009-09-01T00:00 | 979 | 907 | 19.6 | 13.9 | |||
| 2009-09-01T00:00 | 995 | 906 | 19.5 | 13.9 | 232 | 12 | |
| 2009-09-01T00:00 | 1010 | 904 | 19.4 | 13.9 | |||
| 2009-09-01T00:00 | 1020 | 903 | 19.4 | 14.0 | |||
| 2009-09-01T00:00 | 1025 | 902 | 19.3 | 14.0 | |||
| 2009-09-01T00:00 | 1043 | 901 | 19.3 | 14.0 | 234 | 12 | |
| 2009-09-01T00:00 | 1048 | 900 | 19.3 | 14.0 | |||
| 2009-09-01T00:00 | 1052 | 900 | 19.3 | 14.1 | |||
| 2009-09-01T00:00 | 1060 | 899 | 19.2 | 14.1 | |||
| 2009-09-01T00:00 | 1065 | 898 | 19.1 | 14.1 | |||
| 2009-09-01T00:00 | 1085 | 896 | 19.0 | 14.0 | 235 | 12 | |
| 2009-09-01T00:00 | 1097 | 895 | 18.9 | 14.0 | |||
| 2009-09-01T00:00 | 1101 | 894 | 18.9 | 13.9 | |||
| 2009-09-01T00:00 | 1123 | 892 | 18.8 | 13.9 | |||
| 2009-09-01T00:00 | 1129 | 892 | 18.8 | 13.9 | 235 | 12 | |
| 2009-09-01T00:00 | 1139 | 891 | 18.8 | 13.8 | |||
| 2009-09-01T00:00 | 1144 | 890 | 18.7 | 13.8 | |||
| 2009-09-01T00:00 | 1171 | 887 | 18.5 | 13.9 | |||
| 2009-09-01T00:00 | 1181 | 886 | 18.4 | 13.9 | 234 | 12 | |
| 2009-09-01T00:00 | 1186 | 886 | 18.4 | 13.9 | |||
| 2009-09-01T00:00 | 1192 | 885 | 18.4 | 13.9 | |||
| 2009-09-01T00:00 | 1219 | 882 | 18.3 | 13.7 | |||
| 2009-09-01T00:00 | 1237 | 880 | 18.1 | 13.6 | 231 | 11 | |
| 2009-09-01T00:00 | 1243 | 880 | 18.0 | 13.6 | |||
| 2009-09-01T00:00 | 1269 | 877 | 17.8 | 13.5 | |||
| 2009-09-01T00:00 | 1282 | 876 | 17.7 | 13.4 | |||
| 2009-09-01T00:00 | 1287 | 875 | 17.6 | 13.4 | 226 | 10 | |
| 2009-09-01T00:00 | 1309 | 873 | 17.7 | 13.1 | |||
| 2009-09-01T00:00 | 1322 | 872 | 17.7 | 12.9 | |||
| 2009-09-01T00:00 | 1327 | 871 | 17.6 | 12.8 | |||
| 2009-09-01T00:00 | 1331 | 871 | 17.6 | 12.8 | 219 | 9 | |
| 2009-09-01T00:00 | 1349 | 869 | 17.5 | 12.6 | |||
| 2009-09-01T00:00 | 1362 | 868 | 17.4 | 12.5 | |||
| 2009-09-01T00:00 | 1367 | 867 | 17.3 | 12.5 | |||
| 2009-09-01T00:00 | 1376 | 866 | 17.3 | 12.3 | 212 | 9 | |
| 2009-09-01T00:00 | 1389 | 865 | 17.2 | 12.1 | |||
| 2009-09-01T00:00 | 1402 | 864 | 17.2 | 11.9 | |||
| 2009-09-01T00:00 | 1406 | 863 | 17.1 | 11.8 | |||
| 2009-09-01T00:00 | 1419 | 862 | 17.0 | 11.5 | 205 | 10 | |
| 2009-09-01T00:00 | 1427 | 861 | 17.0 | 11.4 | |||
| 2009-09-01T00:00 | 1441 | 860 | 16.9 | 11.1 | |||
| 2009-09-01T00:00 | 1445 | 859 | 16.9 | 11.1 | |||
| 2009-09-01T00:00 | 1464 | 857 | 16.8 | 10.7 | 202 | 10 | |
| 2009-09-01T00:00 | 1469 | 857 | 16.8 | 10.6 | |||
| 2009-09-01T00:00 | 1484 | 855 | 16.7 | 10.3 | |||
| 2009-09-01T00:00 | 1489 | 855 | 16.7 | 10.2 | |||
| 2009-09-01T00:00 | 1516 | 852 | 16.9 | 9.4 | 200 | 11 | |
| 2009-09-01T00:00 | 1532 | 851 | 16.8 | 8.8 | |||
| 2009-09-01T00:00 | 1537 | 850 | 16.7 | 8.6 | |||
| 2009-09-01T00:00 | 1538 | 850 | 16.7 | 8.6 | |||
| 2009-09-01T00:00 | 1561 | 848 | 16.7 | 8.2 | |||
| 2009-09-01T00:00 | 1565 | 847 | 16.6 | 8.2 | 199 | 11 | |
| 2009-09-01T00:00 | 1573 | 847 | 16.6 | 8.1 | |||
| 2009-09-01T00:00 | 1577 | 846 | 16.8 | 8.0 | |||
| 2009-09-01T00:00 | 1600 | 844 | 16.8 | 7.9 | |||
| 2009-09-01T00:00 | 1612 | 843 | 16.8 | 7.9 | 200 | 11 | |
| 2009-09-01T00:00 | 1617 | 842 | 16.8 | 7.8 | |||
| 2009-09-01T00:00 | 1623 | 842 | 16.9 | 7.8 | |||
| 2009-09-01T00:00 | 1648 | 839 | 16.7 | 8.0 | |||
| 2009-09-01T00:00 | 1660 | 838 | 16.6 | 8.2 | 202 | 11 | |
| 2009-09-01T00:00 | 1664 | 838 | 16.5 | 8.2 | |||
| 2009-09-01T00:00 | 1688 | 835 | 16.3 | 8.4 | |||
| 2009-09-01T00:00 | 1705 | 834 | 16.2 | 8.6 | |||
| 2009-09-01T00:00 | 1711 | 833 | 16.1 | 8.6 | 205 | 10 | |
| 2009-09-01T00:00 | 1737 | 830 | 15.9 | 8.8 | |||
| 2009-09-01T00:00 | 1750 | 829 | 15.8 | 8.9 | |||
| 2009-09-01T00:00 | 1754 | 829 | 15.8 | 9.0 | |||
| 2009-09-01T00:00 | 1759 | 828 | 15.7 | 9.0 | 208 | 10 | |
| 2009-09-01T00:00 | 1778 | 826 | 15.6 | 9.2 | |||
| 2009-09-01T00:00 | 1794 | 825 | 15.4 | 9.3 | |||
| 2009-09-01T00:00 | 1799 | 824 | 15.4 | 9.3 | |||
| 2009-09-01T00:00 | 1808 | 823 | 15.3 | 9.4 | 213 | 9 | |
| 2009-09-01T00:00 | 1822 | 822 | 15.2 | 9.4 | |||
| 2009-09-01T00:00 | 1834 | 821 | 15.1 | 9.4 | |||
| 2009-09-01T00:00 | 1837 | 821 | 15.1 | 9.3 | |||
| 2009-09-01T00:00 | 1851 | 819 | 15.0 | 9.3 | 218 | 9 | |
| 2009-09-01T00:00 | 1865 | 818 | 14.9 | 9.3 | |||
| 2009-09-01T00:00 | 1875 | 817 | 14.8 | 9.3 | |||
| 2009-09-01T00:00 | 1881 | 816 | 14.7 | 9.3 | |||
| 2009-09-01T00:00 | 1901 | 815 | 14.6 | 9.2 | 222 | 9 | |
| 2009-09-01T00:00 | 1911 | 814 | 14.6 | 9.1 | |||
| 2009-09-01T00:00 | 1921 | 813 | 14.6 | 9.1 | |||
| 2009-09-01T00:00 | 1925 | 812 | 14.5 | 9.1 | |||
| 2009-09-01T00:00 | 1949 | 810 | 14.3 | 9.0 | 224 | 10 | |
| 2009-09-01T00:00 | 1953 | 809 | 14.3 | 9.0 | |||
| 2009-09-01T00:00 | 1962 | 809 | 14.2 | 9.0 | |||
| 2009-09-01T00:00 | 1967 | 808 | 14.1 | 9.0 | |||
| 2009-09-01T00:00 | 1996 | 805 | 14.0 | 8.9 | 225 | 10 | |
| 2009-09-01T00:00 | 2007 | 804 | 14.0 | 8.8 | |||
| 2009-09-01T00:00 | 2012 | 804 | 13.9 | 8.8 | |||
| 2009-09-01T00:00 | 2038 | 801 | 13.8 | 8.7 | |||
| 2009-09-01T00:00 | 2041 | 801 | 13.7 | 8.6 | 226 | 11 | |
| 2009-09-01T00:00 | 2045 | 801 | 13.7 | 8.6 | |||
| 2009-09-01T00:00 | 2048 | 800 | 13.7 | 8.6 | |||
| 2009-09-01T00:00 | 2053 | 800 | 13.6 | 8.6 | |||
| 2009-09-01T00:00 | 2069 | 798 | 13.6 | 8.5 | |||
| 2009-09-01T00:00 | 2077 | 798 | 13.5 | 8.4 | 225 | 12 | |
| 2009-09-01T00:00 | 2081 | 797 | 13.5 | 8.4 | |||
| 2009-09-01T00:00 | 2085 | 797 | 13.4 | 8.4 | |||
| 2009-09-01T00:00 | 2106 | 795 | 13.2 | 8.3 | |||
| 2009-09-01T00:00 | 2121 | 794 | 13.1 | 8.3 | 224 | 13 | |
| 2009-09-01T00:00 | 2126 | 793 | 13.1 | 8.3 | |||
| 2009-09-01T00:00 | 2149 | 791 | 12.9 | 8.3 | |||
| 2009-09-01T00:00 | 2160 | 790 | 12.8 | 8.2 | |||
| 2009-09-01T00:00 | 2163 | 790 | 12.7 | 8.2 | 223 | 14 | |
| 2009-09-01T00:00 | 2186 | 787 | 12.8 | 7.9 | |||
| 2009-09-01T00:00 | 2204 | 786 | 13.0 | 7.7 | |||
| 2009-09-01T00:00 | 2210 | 785 | 12.9 | 7.6 | |||
| 2009-09-01T00:00 | 2215 | 785 | 12.9 | 7.5 | 223 | 15 | |
| 2009-09-01T00:00 | 2238 | 783 | 12.7 | 7.1 | |||
| 2009-09-01T00:00 | 2255 | 781 | 12.6 | 6.8 | |||
| 2009-09-01T00:00 | 2260 | 781 | 12.5 | 6.8 | |||
| 2009-09-01T00:00 | 2272 | 779 | 12.4 | 6.7 | 224 | 16 | |
| 2009-09-01T00:00 | 2290 | 778 | 12.3 | 6.6 | |||
| 2009-09-01T00:00 | 2311 | 776 | 12.1 | 6.6 | |||
| 2009-09-01T00:00 | 2318 | 775 | 12.0 | 6.6 | |||
| 2009-09-01T00:00 | 2338 | 773 | 11.9 | 6.4 | 225 | 16 | |
| 2009-09-01T00:00 | 2358 | 772 | 11.9 | 6.1 | |||
| 2009-09-01T00:00 | 2371 | 770 | 11.6 | 6.0 | |||
| 2009-09-01T00:00 | 2377 | 770 | 11.6 | 5.9 | |||
| 2009-09-01T00:00 | 2398 | 768 | 11.5 | 5.4 | 226 | 17 | |
| 2009-09-01T00:00 | 2409 | 767 | 11.5 | 5.2 | |||
| 2009-09-01T00:00 | 2417 | 766 | 11.4 | 5.0 | |||
| 2009-09-01T00:00 | 2422 | 766 | 11.3 | 4.8 | |||
| 2009-09-01T00:00 | 2445 | 764 | 11.1 | 4.5 | 228 | 17 | |
| 2009-09-01T00:00 | 2450 | 763 | 11.1 | 4.5 | |||
| 2009-09-01T00:00 | 2465 | 762 | 11.0 | 4.3 | |||
| 2009-09-01T00:00 | 2469 | 761 | 10.9 | 4.3 | |||
| 2009-09-01T00:00 | 2494 | 759 | 10.9 | 3.6 | 229 | 17 | |
| 2009-09-01T00:00 | 2509 | 758 | 10.8 | 3.1 | |||
| 2009-09-01T00:00 | 2514 | 757 | 10.7 | 2.9 | |||
| 2009-09-01T00:00 | 2535 | 755 | 10.6 | 2.6 | |||
| 2009-09-01T00:00 | 2538 | 755 | 10.6 | 2.5 | 229 | 18 | |
| 2009-09-01T00:00 | 2544 | 755 | 10.5 | 2.5 | |||
| 2009-09-01T00:00 | 2547 | 754 | 10.4 | 2.4 | |||
| 2009-09-01T00:00 | 2566 | 753 | 10.4 | 2.3 | |||
| 2009-09-01T00:00 | 2575 | 752 | 10.3 | 2.3 | 229 | 18 | |
| 2009-09-01T00:00 | 2580 | 751 | 10.2 | 2.2 | |||
| 2009-09-01T00:00 | 2585 | 751 | 10.2 | 2.2 | |||
| 2009-09-01T00:00 | 2610 | 749 | 10.0 | 2.1 | |||
| 2009-09-01T00:00 | 2617 | 748 | 10.0 | 2.1 | 228 | 17 | |
| 2009-09-01T00:00 | 2620 | 748 | 9.9 | 2.1 | |||
| 2009-09-01T00:00 | 2640 | 746 | 9.9 | 1.8 | |||
| 2009-09-01T00:00 | 2649 | 745 | 9.8 | 1.7 | 227 | 17 | |
| 2009-09-01T00:00 | 2653 | 745 | 9.8 | 1.6 | |||
| 2009-09-01T00:00 | 2670 | 743 | 9.6 | 1.4 | |||
| 2009-09-01T00:00 | 2683 | 742 | 9.6 | 1.3 | |||
| 2009-09-01T00:00 | 2687 | 742 | 9.5 | 1.3 | 225 | 17 | |
| 2009-09-01T00:00 | 2708 | 740 | 9.4 | 1.0 | |||
| 2009-09-01T00:00 | 2720 | 739 | 9.3 | 0.9 | |||
| 2009-09-01T00:00 | 2724 | 738 | 9.3 | 0.8 | |||
| 2009-09-01T00:00 | 2728 | 738 | 9.3 | 0.8 | 224 | 16 | |
| 2009-09-01T00:00 | 2746 | 736 | 9.3 | 0.5 | |||
| 2009-09-01T00:00 | 2752 | 736 | 9.3 | 0.4 | |||
| 2009-09-01T00:00 | 2755 | 736 | 9.2 | 0.4 | |||
| 2009-09-01T00:00 | 2762 | 735 | 9.3 | 0.2 | 223 | 15 | |
| 2009-09-01T00:00 | 2777 | 734 | 9.4 | -0.2 | |||
| 2009-09-01T00:00 | 2785 | 733 | 9.3 | -0.3 | |||
| 2009-09-01T00:00 | 2789 | 733 | 9.4 | -0.4 | |||
| 2009-09-01T00:00 | 2801 | 732 | 9.3 | -0.6 | 222 | 14 | |
| 2009-09-01T00:00 | 2813 | 730 | 9.2 | -0.8 | |||
| 2009-09-01T00:00 | 2827 | 729 | 9.2 | -1.0 | |||
| 2009-09-01T00:00 | 2831 | 729 | 9.1 | -1.0 | |||
| 2009-09-01T00:00 | 2845 | 728 | 9.1 | -1.2 | 222 | 13 | |
| 2009-09-01T00:00 | 2854 | 727 | 9.1 | -1.4 | |||
| 2009-09-01T00:00 | 2867 | 726 | 9.0 | -1.6 | |||
| 2009-09-01T00:00 | 2872 | 725 | 8.9 | -1.6 | |||
| 2009-09-01T00:00 | 2887 | 724 | 8.8 | -1.8 | 222 | 12 | |
| 2009-09-01T00:00 | 2895 | 723 | 8.8 | -1.8 | |||
| 2009-09-01T00:00 | 2902 | 723 | 8.7 | -1.9 | |||
| 2009-09-01T00:00 | 2906 | 722 | 8.6 | -1.9 | |||
| 2009-09-01T00:00 | 2923 | 721 | 8.5 | -2.0 | 223 | 11 | |
| 2009-09-01T00:00 | 2927 | 721 | 8.5 | -2.1 | |||
| 2009-09-01T00:00 | 2934 | 720 | 8.5 | -2.2 | |||
| 2009-09-01T00:00 | 2937 | 720 | 8.4 | -2.2 | |||
| 2009-09-01T00:00 | 2958 | 718 | 8.4 | -2.5 | 224 | 11 | |
| 2009-09-01T00:00 | 2969 | 717 | 8.3 | -2.7 | |||
| 2009-09-01T00:00 | 2973 | 716 | 8.2 | -2.7 | |||
| 2009-09-01T00:00 | 2995 | 715 | 8.1 | -2.9 | |||
| 2009-09-01T00:00 | 3001 | 714 | 8.1 | -2.9 | 225 | 10 | |
| 2009-09-01T00:00 | 3012 | 713 | 8.0 | -3.0 | |||
| 2009-09-01T00:00 | 3017 | 713 | 7.9 | -3.0 | |||
| 2009-09-01T00:00 | 3046 | 710 | 7.8 | -3.2 | |||
| 2009-09-01T00:00 | 3050 | 710 | 7.7 | -3.2 | 226 | 10 | |
| 2009-09-01T00:00 | 3055 | 709 | 7.6 | -3.2 | |||
| 2009-09-01T00:00 | 3059 | 709 | 7.5 | -3.2 | |||
| 2009-09-01T00:00 | 3083 | 707 | 7.4 | -3.3 | |||
| 2009-09-01T00:00 | 3091 | 706 | 7.3 | -3.3 | 227 | 9 | |
| 2009-09-01T00:00 | 3095 | 706 | 7.3 | -3.4 | |||
| 2009-09-01T00:00 | 3099 | 706 | 7.2 | -3.4 | |||
| 2009-09-01T00:00 | 3118 | 704 | 7.0 | -3.5 | |||
| 2009-09-01T00:00 | 3129 | 703 | 7.0 | -3.6 | 228 | 9 | |
| 2009-09-01T00:00 | 3132 | 703 | 6.9 | -3.6 | |||
| 2009-09-01T00:00 | 3151 | 701 | 6.8 | -3.7 | |||
| 2009-09-01T00:00 | 3164 | 700 | 6.7 | -3.8 | |||
| 2009-09-01T00:00 | 3165 | 700 | 6.7 | -3.8 | |||
| 2009-09-01T00:00 | 3168 | 700 | 6.7 | -3.9 | 230 | 9 | |
| 2009-09-01T00:00 | 3192 | 698 | 6.6 | -4.2 | |||
| 2009-09-01T00:00 | 3199 | 697 | 6.5 | -4.4 | |||
| 2009-09-01T00:00 | 3207 | 696 | 6.5 | -4.5 | 233 | 9 | |
| 2009-09-01T00:00 | 3229 | 695 | 6.5 | -5.0 | |||
| 2009-09-01T00:00 | 3245 | 693 | 6.5 | -5.3 | |||
| 2009-09-01T00:00 | 3250 | 693 | 6.5 | -5.4 | |||
| 2009-09-01T00:00 | 3255 | 692 | 6.5 | -5.6 | 236 | 9 | |
| 2009-09-01T00:00 | 3276 | 691 | 6.5 | -6.2 | |||
| 2009-09-01T00:00 | 3290 | 689 | 6.4 | -6.7 | |||
| 2009-09-01T00:00 | 3295 | 689 | 6.4 | -6.9 | |||
| 2009-09-01T00:00 | 3324 | 687 | 6.4 | -7.7 | |||
| 2009-09-01T00:00 | 3334 | 686 | 6.4 | -8.0 | |||
| 2009-09-01T00:00 | 3339 | 685 | 6.4 | -8.1 | |||
| 2009-09-01T00:00 | 3368 | 683 | 6.4 | -8.8 | |||
| 2009-09-01T00:00 | 3382 | 682 | 6.4 | -9.1 | |||
| 2009-09-01T00:00 | 3386 | 681 | 6.3 | -9.2 | |||
| 2009-09-01T00:00 | 3408 | 680 | 6.2 | -9.6 | |||
| 2009-09-01T00:00 | 3420 | 679 | 6.2 | -9.8 | |||
| 2009-09-01T00:00 | 3424 | 678 | 6.2 | -9.9 | |||
| 2009-09-01T00:00 | 3452 | 676 | 6.4 | -10.6 | |||
| 2009-09-01T00:00 | 3463 | 675 | 6.3 | -10.9 | |||
| 2009-09-01T00:00 | 3468 | 675 | 6.3 | -11.1 | |||
| 2009-09-01T00:00 | 3499 | 672 | 6.3 | -11.6 | |||
| 2009-09-01T00:00 | 3514 | 671 | 6.2 | -11.8 | |||
| 2009-09-01T00:00 | 3519 | 670 | 6.2 | -11.9 | |||
| 2009-09-01T00:00 | 3544 | 668 | 6.1 | -11.9 | 264 | 7 | |
| 2009-09-01T00:00 | 3559 | 667 | 6.0 | -11.8 | |||
| 2009-09-01T00:00 | 3564 | 667 | 6.0 | -11.8 | |||
| 2009-09-01T00:00 | 3592 | 664 | 5.7 | -11.7 | |||
| 2009-09-01T00:00 | 3601 | 664 | 5.6 | -11.6 | |||
| 2009-09-01T00:00 | 3606 | 663 | 5.5 | -11.6 | |||
| 2009-09-01T00:00 | 3634 | 661 | 5.3 | -11.6 | |||
| 2009-09-01T00:00 | 3649 | 660 | 5.2 | -11.6 | |||
| 2009-09-01T00:00 | 3654 | 659 | 5.1 | -11.6 | |||
| 2009-09-01T00:00 | 3679 | 657 | 4.8 | -11.6 | |||
| 2009-09-01T00:00 | 3693 | 656 | 4.8 | -11.6 | |||
| 2009-09-01T00:00 | 3698 | 656 | 4.7 | -11.6 | |||
| 2009-09-01T00:00 | 3725 | 654 | 4.4 | -11.7 | |||
| 2009-09-01T00:00 | 3738 | 653 | 4.3 | -11.7 | |||
| 2009-09-01T00:00 | 3742 | 652 | 4.3 | -11.7 | |||
| 2009-09-01T00:00 | 3763 | 651 | 4.0 | -11.8 | |||
| 2009-09-01T00:00 | 3776 | 650 | 3.9 | -11.8 | |||
| 2009-09-01T00:00 | 3781 | 649 | 3.8 | -11.8 | |||
| 2009-09-01T00:00 | 3806 | 647 | 3.6 | -11.8 | |||
| 2009-09-01T00:00 | 3814 | 647 | 3.6 | -11.8 | |||
| 2009-09-01T00:00 | 3818 | 646 | 3.5 | -11.8 | 261 | 7 | |
| 2009-09-01T00:00 | 3845 | 644 | 3.4 | -11.5 | |||
| 2009-09-01T00:00 | 3861 | 643 | 3.3 | -11.4 | |||
| 2009-09-01T00:00 | 3866 | 642 | 3.2 | -11.4 | |||
| 2009-09-01T00:00 | 3891 | 640 | 3.0 | -11.1 | |||
| 2009-09-01T00:00 | 3905 | 639 | 2.9 | -10.9 | |||
| 2009-09-01T00:00 | 3909 | 639 | 2.9 | -10.9 | |||
| 2009-09-01T00:00 | 3937 | 637 | 2.7 | -10.4 | |||
| 2009-09-01T00:00 | 3951 | 636 | 2.6 | -10.1 | |||
| 2009-09-01T00:00 | 3955 | 635 | 2.5 | -10.0 | |||
| 2009-09-01T00:00 | 3978 | 634 | 2.3 | -9.7 | |||
| 2009-09-01T00:00 | 3992 | 633 | 2.2 | -9.6 | |||
| 2009-09-01T00:00 | 3996 | 632 | 2.1 | -9.5 | |||
| 2009-09-01T00:00 | 4023 | 630 | 2.0 | -9.4 | |||
| 2009-09-01T00:00 | 4036 | 629 | 1.9 | -9.4 | |||
| 2009-09-01T00:00 | 4040 | 629 | 1.8 | -9.4 | |||
| 2009-09-01T00:00 | 4063 | 627 | 1.7 | -9.6 | |||
| 2009-09-01T00:00 | 4077 | 626 | 1.6 | -9.7 | |||
| 2009-09-01T00:00 | 4082 | 625 | 1.5 | -9.8 | |||
| 2009-09-01T00:00 | 4096 | 624 | 1.4 | -10.0 | 261 | 6 | |
| 2009-09-01T00:00 | 4110 | 623 | 1.4 | -10.2 | |||
| 2009-09-01T00:00 | 4119 | 623 | 1.3 | -10.4 | |||
| 2009-09-01T00:00 | 4124 | 622 | 1.2 | -10.5 | |||
| 2009-09-01T00:00 | 4153 | 620 | 0.9 | -10.8 | |||
| 2009-09-01T00:00 | 4169 | 619 | 0.8 | -11.0 | |||
| 2009-09-01T00:00 | 4175 | 618 | 0.7 | -11.0 | |||
| 2009-09-01T00:00 | 4205 | 616 | 0.6 | -11.2 | |||
| 2009-09-01T00:00 | 4214 | 615 | 0.6 | -11.2 | |||
| 2009-09-01T00:00 | 4219 | 615 | 0.5 | -11.2 | |||
| 2009-09-01T00:00 | 4249 | 613 | 0.2 | -11.2 | |||
| 2009-09-01T00:00 | 4265 | 611 | 0.1 | -11.2 | |||
| 2009-09-01T00:00 | 4271 | 611 | 0.1 | -11.2 | |||
| 2009-09-01T00:00 | 4305 | 608 | -0.1 | -11.1 | |||
| 2009-09-01T00:00 | 4317 | 607 | -0.2 | -11.1 | |||
| 2009-09-01T00:00 | 4323 | 607 | -0.2 | -11.1 | |||
| 2009-09-01T00:00 | 4351 | 605 | -0.3 | -11.1 | |||
| 2009-09-01T00:00 | 4360 | 604 | -0.4 | -11.1 | |||
| 2009-09-01T00:00 | 4363 | 604 | -0.5 | -11.2 | |||
| 2009-09-01T00:00 | 4391 | 602 | -0.6 | -11.2 | 254 | 9 | |
| 2009-09-01T00:00 | 4402 | 601 | -0.7 | -11.2 | |||
| 2009-09-01T00:00 | 4408 | 601 | -0.8 | -11.3 | |||
| 2009-09-01T00:00 | 4416 | 600 | -0.8 | -11.2 | |||
| 2009-09-01T00:00 | 4438 | 598 | -0.9 | -11.2 | |||
| 2009-09-01T00:00 | 4450 | 597 | -1.0 | -11.3 | |||
| 2009-09-01T00:00 | 4454 | 597 | -1.1 | -11.3 | |||
| 2009-09-01T00:00 | 4480 | 595 | -1.3 | -11.4 | |||
| 2009-09-01T00:00 | 4489 | 594 | -1.4 | -11.4 | |||
| 2009-09-01T00:00 | 4494 | 594 | -1.5 | -11.5 | |||
| 2009-09-01T00:00 | 4524 | 592 | -1.7 | -11.7 | |||
| 2009-09-01T00:00 | 4542 | 591 | -1.9 | -11.9 | |||
| 2009-09-01T00:00 | 4548 | 590 | -1.9 | -12.0 | |||
| 2009-09-01T00:00 | 4581 | 588 | -2.1 | -12.5 | |||
| 2009-09-01T00:00 | 4591 | 587 | -2.1 | -12.6 | |||
| 2009-09-01T00:00 | 4601 | 586 | -2.1 | -12.8 | |||
| 2009-09-01T00:00 | 4627 | 584 | -2.2 | -13.4 | |||
| 2009-09-01T00:00 | 4643 | 583 | -2.2 | -13.8 | |||
| 2009-09-01T00:00 | 4649 | 583 | -2.3 | -14.0 | |||
| 2009-09-01T00:00 | 4676 | 581 | -2.4 | -14.9 | |||
| 2009-09-01T00:00 | 4688 | 580 | -2.3 | -15.2 | 247 | 10 | |
| 2009-09-01T00:00 | 4691 | 580 | -2.2 | -15.2 | |||
| 2009-09-01T00:00 | 4713 | 578 | -2.2 | -16.0 | |||
| 2009-09-01T00:00 | 4729 | 577 | -2.3 | -16.8 | |||
| 2009-09-01T00:00 | 4735 | 576 | -2.4 | -17.1 | |||
| 2009-09-01T00:00 | 4767 | 574 | -2.4 | -18.4 | |||
| 2009-09-01T00:00 | 4784 | 573 | -2.5 | -19.2 | |||
| 2009-09-01T00:00 | 4789 | 572 | -2.5 | -19.5 | |||
| 2009-09-01T00:00 | 4817 | 570 | -2.4 | -20.7 | |||
| 2009-09-01T00:00 | 4835 | 569 | -2.4 | -21.5 | |||
| 2009-09-01T00:00 | 4841 | 569 | -2.3 | -21.8 | |||
| 2009-09-01T00:00 | 4869 | 567 | -1.7 | -22.6 | |||
| 2009-09-01T00:00 | 4880 | 566 | -1.8 | -23.1 | |||
| 2009-09-01T00:00 | 4883 | 566 | -1.8 | -23.3 | |||
| 2009-09-01T00:00 | 4912 | 564 | -1.9 | -24.5 | |||
| 2009-09-01T00:00 | 4924 | 563 | -1.9 | -25.0 | |||
| 2009-09-01T00:00 | 4930 | 562 | -2.0 | -25.2 | |||
| 2009-09-01T00:00 | 4963 | 560 | -2.2 | -26.2 | |||
| 2009-09-01T00:00 | 4976 | 559 | -2.3 | -26.4 | |||
| 2009-09-01T00:00 | 4980 | 559 | -2.4 | -26.5 | |||
| 2009-09-01T00:00 | 4989 | 558 | -2.4 | -26.6 | 236 | 8 | |
| 2009-09-01T00:00 | 5008 | 557 | -2.5 | -26.8 | |||
| 2009-09-01T00:00 | 5019 | 556 | -2.7 | -26.9 | |||
| 2009-09-01T00:00 | 5029 | 555 | -2.7 | -27.0 | |||
| 2009-09-01T00:00 | 5055 | 554 | -2.9 | -27.2 | |||
| 2009-09-01T00:00 | 5072 | 552 | -3.0 | -27.3 | |||
| 2009-09-01T00:00 | 5078 | 552 | -3.1 | -27.4 | |||
| 2009-09-01T00:00 | 5109 | 550 | -3.3 | -27.7 | |||
| 2009-09-01T00:00 | 5124 | 549 | -3.4 | -27.9 | |||
| 2009-09-01T00:00 | 5129 | 548 | -3.4 | -28.0 | |||
| 2009-09-01T00:00 | 5158 | 546 | -3.6 | -28.4 | |||
| 2009-09-01T00:00 | 5167 | 546 | -3.7 | -28.5 | |||
| 2009-09-01T00:00 | 5172 | 545 | -3.8 | -28.6 | |||
| 2009-09-01T00:00 | 5203 | 543 | -3.9 | -28.9 | |||
| 2009-09-01T00:00 | 5220 | 542 | -4.0 | -29.1 | |||
| 2009-09-01T00:00 | 5226 | 542 | -4.0 | -29.2 | |||
| 2009-09-01T00:00 | 5256 | 540 | -4.2 | -29.4 | |||
| 2009-09-01T00:00 | 5269 | 539 | -4.2 | -29.4 | |||
| 2009-09-01T00:00 | 5273 | 539 | -4.2 | -29.5 | |||
| 2009-09-01T00:00 | 5293 | 537 | -4.4 | -29.7 | 246 | 9 | |
| 2009-09-01T00:00 | 5297 | 537 | -4.5 | -29.7 | |||
| 2009-09-01T00:00 | 5315 | 536 | -4.6 | -29.7 | |||
| 2009-09-01T00:00 | 5321 | 535 | -4.6 | -29.8 | |||
| 2009-09-01T00:00 | 5355 | 533 | -4.8 | -29.7 | |||
| 2009-09-01T00:00 | 5371 | 532 | -4.9 | -29.7 | |||
| 2009-09-01T00:00 | 5377 | 531 | -5.0 | -29.7 | |||
| 2009-09-01T00:00 | 5407 | 529 | -5.2 | -29.6 | |||
| 2009-09-01T00:00 | 5420 | 529 | -5.3 | -29.6 | |||
| 2009-09-01T00:00 | 5425 | 528 | -5.4 | -29.6 | |||
| 2009-09-01T00:00 | 5447 | 527 | -5.7 | -29.6 | |||
| 2009-09-01T00:00 | 5461 | 526 | -5.8 | -29.6 | |||
| 2009-09-01T00:00 | 5466 | 525 | -5.9 | -29.6 | |||
| 2009-09-01T00:00 | 5491 | 524 | -6.1 | -29.6 | |||
| 2009-09-01T00:00 | 5501 | 523 | -6.2 | -29.5 | |||
| 2009-09-01T00:00 | 5505 | 523 | -6.2 | -29.5 | |||
| 2009-09-01T00:00 | 5531 | 521 | -6.4 | -29.5 | |||
| 2009-09-01T00:00 | 5547 | 520 | -6.5 | -29.5 | |||
| 2009-09-01T00:00 | 5552 | 520 | -6.5 | -29.5 | |||
| 2009-09-01T00:00 | 5583 | 518 | -6.8 | -29.5 | 256 | 10 | |
| 2009-09-01T00:00 | 5593 | 517 | -6.9 | -29.6 | |||
| 2009-09-01T00:00 | 5603 | 516 | -6.9 | -29.6 | |||
| 2009-09-01T00:00 | 5626 | 515 | -7.2 | -29.8 | |||
| 2009-09-01T00:00 | 5640 | 514 | -7.2 | -29.8 | |||
| 2009-09-01T00:00 | 5644 | 514 | -7.2 | -29.9 | |||
| 2009-09-01T00:00 | 5671 | 512 | -7.4 | -30.0 | |||
| 2009-09-01T00:00 | 5684 | 511 | -7.5 | -30.1 | |||
| 2009-09-01T00:00 | 5689 | 511 | -7.5 | -30.2 | |||
| 2009-09-01T00:00 | 5716 | 509 | -7.8 | -30.5 | |||
| 2009-09-01T00:00 | 5729 | 508 | -7.8 | -30.6 | |||
| 2009-09-01T00:00 | 5733 | 508 | -7.9 | -30.7 | |||
| 2009-09-01T00:00 | 5755 | 506 | -8.1 | -31.0 | |||
| 2009-09-01T00:00 | 5769 | 505 | -8.2 | -31.1 | |||
| 2009-09-01T00:00 | 5774 | 505 | -8.2 | -31.2 | |||
| 2009-09-01T00:00 | 5803 | 503 | -8.5 | -31.5 | |||
| 2009-09-01T00:00 | 5820 | 502 | -8.6 | -31.6 | |||
| 2009-09-01T00:00 | 5825 | 502 | -8.6 | -31.6 | |||
| 2009-09-01T00:00 | 5852 | 500 | -8.7 | -31.8 | |||
| 2009-09-01T00:00 | 5855 | 500 | -8.7 | -31.8 | |||
| 2009-09-01T00:00 | 5864 | 499 | -8.8 | -31.8 | 240 | 10 | |
| 2009-09-01T00:00 | 5868 | 499 | -8.8 | -31.8 | |||
| 2009-09-01T00:00 | 5873 | 499 | -8.8 | -31.8 | |||
| 2009-09-01T00:00 | 5900 | 497 | -9.0 | -31.9 | |||
| 2009-09-01T00:00 | 5914 | 496 | -9.1 | -31.9 | |||
| 2009-09-01T00:00 | 5918 | 496 | -9.1 | -32.0 | |||
| 2009-09-01T00:00 | 5941 | 494 | -9.4 | -32.0 | |||
| 2009-09-01T00:00 | 5953 | 494 | -9.5 | -32.0 | |||
| 2009-09-01T00:00 | 5957 | 493 | -9.5 | -32.0 | |||
| 2009-09-01T00:00 | 5986 | 491 | -9.8 | -32.0 | |||
| 2009-09-01T00:00 | 6004 | 490 | -9.9 | -31.9 | |||
| 2009-09-01T00:00 | 6010 | 490 | -9.9 | -31.9 | |||
| 2009-09-01T00:00 | 6044 | 488 | -10.2 | -31.8 | |||
| 2009-09-01T00:00 | 6059 | 487 | -10.3 | -31.8 | |||
| 2009-09-01T00:00 | 6064 | 486 | -10.4 | -31.8 | |||
| 2009-09-01T00:00 | 6093 | 485 | -10.6 | -31.8 | |||
| 2009-09-01T00:00 | 6106 | 484 | -10.7 | -31.8 | |||
| 2009-09-01T00:00 | 6111 | 484 | -10.8 | -31.8 | |||
| 2009-09-01T00:00 | 6136 | 482 | -11.1 | -32.0 | |||
| 2009-09-01T00:00 | 6148 | 481 | -11.1 | -32.1 | 235 | 10 | |
| 2009-09-01T00:00 | 6152 | 481 | -11.2 | -32.2 | |||
| 2009-09-01T00:00 | 6174 | 480 | -11.4 | -32.5 | |||
| 2009-09-01T00:00 | 6189 | 479 | -11.5 | -32.7 | |||
| 2009-09-01T00:00 | 6199 | 478 | -11.6 | -32.8 | |||
| 2009-09-01T00:00 | 6224 | 476 | -11.7 | -33.3 | |||
| 2009-09-01T00:00 | 6241 | 475 | -11.8 | -33.6 | |||
| 2009-09-01T00:00 | 6246 | 475 | -11.8 | -33.8 | |||
| 2009-09-01T00:00 | 6276 | 473 | -12.0 | -34.3 | |||
| 2009-09-01T00:00 | 6289 | 472 | -12.0 | -34.6 | |||
| 2009-09-01T00:00 | 6294 | 472 | -12.1 | -34.7 | |||
| 2009-09-01T00:00 | 6322 | 470 | -12.3 | -35.2 | |||
| 2009-09-01T00:00 | 6336 | 470 | -12.4 | -35.4 | |||
| 2009-09-01T00:00 | 6340 | 469 | -12.5 | -35.5 | |||
| 2009-09-01T00:00 | 6374 | 467 | -12.7 | -35.9 | |||
| 2009-09-01T00:00 | 6393 | 466 | -12.8 | -36.0 | |||
| 2009-09-01T00:00 | 6400 | 466 | -12.9 | -36.1 | |||
| 2009-09-01T00:00 | 6433 | 464 | -13.0 | -36.1 | |||
| 2009-09-01T00:00 | 6448 | 463 | -13.1 | -36.2 | |||
| 2009-09-01T00:00 | 6453 | 462 | -13.2 | -36.2 | 231 | 10 | |
| 2009-09-01T00:00 | 6483 | 461 | -13.4 | -36.2 | |||
| 2009-09-01T00:00 | 6493 | 460 | -13.5 | -36.2 | |||
| 2009-09-01T00:00 | 6503 | 459 | -13.5 | -36.2 | |||
| 2009-09-01T00:00 | 6526 | 458 | -13.8 | -36.2 | |||
| 2009-09-01T00:00 | 6537 | 457 | -13.9 | -36.2 | |||
| 2009-09-01T00:00 | 6545 | 457 | -13.9 | -36.1 | |||
| 2009-09-01T00:00 | 6567 | 455 | -14.2 | -36.1 | |||
| 2009-09-01T00:00 | 6582 | 455 | -14.3 | -36.0 | |||
| 2009-09-01T00:00 | 6587 | 454 | -14.4 | -36.1 | |||
| 2009-09-01T00:00 | 6617 | 452 | -14.7 | -36.0 | |||
| 2009-09-01T00:00 | 6631 | 452 | -14.8 | -35.9 | |||
| 2009-09-01T00:00 | 6636 | 451 | -14.9 | -36.0 | |||
| 2009-09-01T00:00 | 6665 | 450 | -15.1 | -35.9 | |||
| 2009-09-01T00:00 | 6680 | 449 | -15.2 | -35.9 | |||
| 2009-09-01T00:00 | 6685 | 448 | -15.3 | -35.9 | |||
| 2009-09-01T00:00 | 6716 | 447 | -15.5 | -35.9 | |||
| 2009-09-01T00:00 | 6732 | 446 | -15.7 | -36.0 | |||
| 2009-09-01T00:00 | 6737 | 445 | -15.8 | -36.1 | |||
| 2009-09-01T00:00 | 6742 | 445 | -15.8 | -36.1 | 225 | 10 | |
| 2009-09-01T00:00 | 6769 | 443 | -16.0 | -36.3 | |||
| 2009-09-01T00:00 | 6785 | 442 | -16.1 | -36.4 | |||
| 2009-09-01T00:00 | 6791 | 442 | -16.1 | -36.5 | |||
| 2009-09-01T00:00 | 6821 | 440 | -16.4 | -36.9 | |||
| 2009-09-01T00:00 | 6835 | 440 | -16.5 | -37.1 | |||
| 2009-09-01T00:00 | 6840 | 439 | -16.6 | -37.2 | |||
| 2009-09-01T00:00 | 6865 | 438 | -16.8 | -37.7 | |||
| 2009-09-01T00:00 | 6876 | 437 | -16.8 | -37.9 | |||
| 2009-09-01T00:00 | 6880 | 437 | -16.9 | -38.0 | |||
| 2009-09-01T00:00 | 6907 | 435 | -16.9 | -38.5 | |||
| 2009-09-01T00:00 | 6922 | 434 | -16.9 | -38.8 | |||
| 2009-09-01T00:00 | 6927 | 434 | -17.0 | -38.9 | |||
| 2009-09-01T00:00 | 6959 | 432 | -17.1 | -39.5 | |||
| 2009-09-01T00:00 | 6976 | 431 | -17.2 | -39.8 | |||
| 2009-09-01T00:00 | 6981 | 431 | -17.3 | -39.9 | |||
| 2009-09-01T00:00 | 7010 | 429 | -17.4 | -40.3 | |||
| 2009-09-01T00:00 | 7022 | 429 | -17.5 | -40.4 | |||
| 2009-09-01T00:00 | 7026 | 429 | -17.6 | -40.5 | |||
| 2009-09-01T00:00 | 7031 | 428 | -17.6 | -40.5 | 237 | 10 | |
| 2009-09-01T00:00 | 7054 | 427 | -17.8 | -40.7 | |||
| 2009-09-01T00:00 | 7069 | 426 | -17.9 | -40.8 | |||
| 2009-09-01T00:00 | 7073 | 426 | -18.0 | -40.9 | |||
| 2009-09-01T00:00 | 7107 | 424 | -18.1 | -40.9 | |||
| 2009-09-01T00:00 | 7125 | 423 | -18.2 | -40.9 | |||
| 2009-09-01T00:00 | 7131 | 423 | -18.3 | -41.0 | |||
| 2009-09-01T00:00 | 7162 | 421 | -18.5 | -41.1 | |||
| 2009-09-01T00:00 | 7175 | 420 | -18.5 | -41.1 | |||
| 2009-09-01T00:00 | 7180 | 420 | -18.6 | -41.1 | |||
| 2009-09-01T00:00 | 7206 | 418 | -18.8 | -41.2 | |||
| 2009-09-01T00:00 | 7220 | 418 | -18.9 | -41.2 | |||
| 2009-09-01T00:00 | 7224 | 417 | -19.0 | -41.2 | |||
| 2009-09-01T00:00 | 7250 | 416 | -19.2 | -41.2 | |||
| 2009-09-01T00:00 | 7262 | 415 | -19.2 | -41.3 | |||
| 2009-09-01T00:00 | 7266 | 415 | -19.3 | -41.3 | |||
| 2009-09-01T00:00 | 7293 | 413 | -19.6 | -41.3 | |||
| 2009-09-01T00:00 | 7307 | 413 | -19.7 | -41.4 | |||
| 2009-09-01T00:00 | 7312 | 412 | -19.8 | -41.4 | |||
| 2009-09-01T00:00 | 7318 | 412 | -19.8 | -41.4 | 244 | 10 | |
| 2009-09-01T00:00 | 7347 | 410 | -20.0 | -41.5 | |||
| 2009-09-01T00:00 | 7368 | 409 | -20.2 | -41.6 | |||
| 2009-09-01T00:00 | 7375 | 409 | -20.2 | -41.6 | |||
| 2009-09-01T00:00 | 7411 | 407 | -20.6 | -41.9 | |||
| 2009-09-01T00:00 | 7427 | 406 | -20.7 | -42.0 | |||
| 2009-09-01T00:00 | 7432 | 406 | -20.8 | -42.0 | |||
| 2009-09-01T00:00 | 7461 | 404 | -21.0 | -42.3 | |||
| 2009-09-01T00:00 | 7475 | 403 | -21.2 | -42.3 | |||
| 2009-09-01T00:00 | 7480 | 403 | -21.2 | -42.4 | |||
| 2009-09-01T00:00 | 7506 | 402 | -21.5 | -42.5 | |||
| 2009-09-01T00:00 | 7517 | 401 | -21.6 | -42.6 | |||
| 2009-09-01T00:00 | 7525 | 401 | -21.7 | -42.6 | |||
| 2009-09-01T00:00 | 7537 | 400 | -21.8 | -42.7 | |||
| 2009-09-01T00:00 | 7548 | 399 | -21.9 | -42.8 | |||
| 2009-09-01T00:00 | 7566 | 398 | -22.0 | -42.7 | |||
| 2009-09-01T00:00 | 7578 | 398 | -22.1 | -42.8 | |||
| 2009-09-01T00:00 | 7606 | 396 | -22.4 | -42.9 | |||
| 2009-09-01T00:00 | 7622 | 395 | -22.5 | -43.0 | |||
| 2009-09-01T00:00 | 7632 | 395 | -22.6 | -43.0 | 248 | 10 | |
| 2009-09-01T00:00 | 7659 | 393 | -22.9 | -43.2 | |||
| 2009-09-01T00:00 | 7670 | 393 | -23.0 | -43.2 | |||
| 2009-09-01T00:00 | 7674 | 393 | -23.0 | -43.3 | |||
| 2009-09-01T00:00 | 7699 | 391 | -23.3 | -43.4 | |||
| 2009-09-01T00:00 | 7711 | 391 | -23.4 | -43.5 | |||
| 2009-09-01T00:00 | 7716 | 390 | -23.5 | -43.6 | |||
| 2009-09-01T00:00 | 7743 | 389 | -23.7 | -43.8 | |||
| 2009-09-01T00:00 | 7757 | 388 | -23.8 | -43.9 | |||
| 2009-09-01T00:00 | 7762 | 388 | -23.9 | -44.0 | |||
| 2009-09-01T00:00 | 7792 | 386 | -24.1 | -44.2 | |||
| 2009-09-01T00:00 | 7807 | 386 | -24.2 | -44.3 | |||
| 2009-09-01T00:00 | 7812 | 385 | -24.3 | -44.4 | |||
| 2009-09-01T00:00 | 7839 | 384 | -24.5 | -44.6 | |||
| 2009-09-01T00:00 | 7851 | 383 | -24.6 | -44.8 | |||
| 2009-09-01T00:00 | 7859 | 383 | -24.7 | -44.8 | |||
| 2009-09-01T00:00 | 7881 | 382 | -25.0 | -45.1 | |||
| 2009-09-01T00:00 | 7896 | 381 | -25.0 | -45.2 | |||
| 2009-09-01T00:00 | 7901 | 381 | -25.1 | -45.2 | 248 | 10 | |
| 2009-09-01T00:00 | 7906 | 380 | -25.1 | -45.3 | |||
| 2009-09-01T00:00 | 7935 | 379 | -25.4 | -45.5 | |||
| 2009-09-01T00:00 | 7949 | 378 | -25.5 | -45.6 | |||
| 2009-09-01T00:00 | 7953 | 378 | -25.5 | -45.7 | |||
| 2009-09-01T00:00 | 7982 | 376 | -25.8 | -45.9 | |||
| 2009-09-01T00:00 | 7997 | 376 | -25.9 | -46.0 | |||
| 2009-09-01T00:00 | 8002 | 375 | -26.0 | -46.1 | |||
| 2009-09-01T00:00 | 8032 | 374 | -26.2 | -46.3 | |||
| 2009-09-01T00:00 | 8047 | 373 | -26.3 | -46.4 | |||
| 2009-09-01T00:00 | 8052 | 373 | -26.4 | -46.4 | |||
| 2009-09-01T00:00 | 8081 | 371 | -26.7 | -46.7 | |||
| 2009-09-01T00:00 | 8095 | 371 | -26.7 | -46.8 | |||
| 2009-09-01T00:00 | 8105 | 370 | -26.8 | -46.9 | |||
| 2009-09-01T00:00 | 8128 | 369 | -27.1 | -47.2 | |||
| 2009-09-01T00:00 | 8141 | 368 | -27.2 | -47.2 | |||
| 2009-09-01T00:00 | 8150 | 368 | -27.2 | -47.3 | |||
| 2009-09-01T00:00 | 8174 | 366 | -27.5 | -47.6 | |||
| 2009-09-01T00:00 | 8181 | 366 | -27.6 | -47.7 | 244 | 10 | |
| 2009-09-01T00:00 | 8184 | 366 | -27.6 | -47.7 | |||
| 2009-09-01T00:00 | 8188 | 366 | -27.7 | -47.8 | |||
| 2009-09-01T00:00 | 8212 | 365 | -27.9 | -48.0 | |||
| 2009-09-01T00:00 | 8227 | 364 | -28.0 | -48.2 | |||
| 2009-09-01T00:00 | 8231 | 364 | -28.1 | -48.2 | |||
| 2009-09-01T00:00 | 8261 | 362 | -28.3 | -48.5 | |||
| 2009-09-01T00:00 | 8276 | 361 | -28.4 | -48.5 | |||
| 2009-09-01T00:00 | 8286 | 361 | -28.5 | -48.6 | |||
| 2009-09-01T00:00 | 8312 | 360 | -28.7 | -48.8 | |||
| 2009-09-01T00:00 | 8327 | 359 | -28.8 | -48.8 | |||
| 2009-09-01T00:00 | 8338 | 358 | -28.9 | -48.8 | |||
| 2009-09-01T00:00 | 8368 | 357 | -29.1 | -49.0 | |||
| 2009-09-01T00:00 | 8382 | 356 | -29.2 | -49.0 | |||
| 2009-09-01T00:00 | 8386 | 356 | -29.3 | -49.0 | |||
| 2009-09-01T00:00 | 8415 | 354 | -29.6 | -49.1 | |||
| 2009-09-01T00:00 | 8429 | 354 | -29.7 | -49.2 | |||
| 2009-09-01T00:00 | 8434 | 353 | -29.8 | -49.2 | |||
| 2009-09-01T00:00 | 8461 | 352 | -30.0 | -49.3 | |||
| 2009-09-01T00:00 | 8466 | 352 | -30.0 | -49.3 | 234 | 11 | |
| 2009-09-01T00:00 | 8474 | 351 | -30.1 | -49.3 | |||
| 2009-09-01T00:00 | 8483 | 351 | -30.2 | -49.4 | |||
| 2009-09-01T00:00 | 8513 | 350 | -30.4 | -49.5 | |||
| 2009-09-01T00:00 | 8530 | 349 | -30.5 | -49.4 | |||
| 2009-09-01T00:00 | 8536 | 348 | -30.6 | -49.4 | |||
| 2009-09-01T00:00 | 8565 | 347 | -30.9 | -49.5 | |||
| 2009-09-01T00:00 | 8577 | 346 | -31.0 | -49.6 | |||
| 2009-09-01T00:00 | 8581 | 346 | -31.1 | -49.6 | |||
| 2009-09-01T00:00 | 8608 | 345 | -31.3 | -49.7 | |||
| 2009-09-01T00:00 | 8625 | 344 | -31.3 | -49.6 | |||
| 2009-09-01T00:00 | 8636 | 344 | -31.4 | -49.7 | |||
| 2009-09-01T00:00 | 8668 | 342 | -31.7 | -49.8 | |||
| 2009-09-01T00:00 | 8684 | 341 | -31.7 | -49.8 | |||
| 2009-09-01T00:00 | 8689 | 341 | -31.8 | -49.8 | |||
| 2009-09-01T00:00 | 8718 | 340 | -32.1 | -50.0 | |||
| 2009-09-01T00:00 | 8732 | 339 | -32.2 | -50.0 | |||
| 2009-09-01T00:00 | 8736 | 339 | -32.3 | -50.1 | |||
| 2009-09-01T00:00 | 8759 | 338 | -32.5 | -50.2 | 230 | 13 | |
| 2009-09-01T00:00 | 8763 | 337 | -32.5 | -50.2 | |||
| 2009-09-01T00:00 | 8777 | 337 | -32.7 | -50.2 | |||
| 2009-09-01T00:00 | 8786 | 336 | -32.7 | -50.3 | |||
| 2009-09-01T00:00 | 8816 | 335 | -33.0 | -50.4 | |||
| 2009-09-01T00:00 | 8832 | 334 | -33.1 | -50.4 | |||
| 2009-09-01T00:00 | 8837 | 334 | -33.2 | -50.4 | |||
| 2009-09-01T00:00 | 8865 | 333 | -33.4 | -50.6 | |||
| 2009-09-01T00:00 | 8876 | 332 | -33.5 | -50.7 | |||
| 2009-09-01T00:00 | 8884 | 332 | -33.6 | -50.7 | |||
| 2009-09-01T00:00 | 8911 | 330 | -33.9 | -50.9 | |||
| 2009-09-01T00:00 | 8926 | 330 | -34.0 | -50.9 | |||
| 2009-09-01T00:00 | 8932 | 329 | -34.1 | -51.0 | |||
| 2009-09-01T00:00 | 8961 | 328 | -34.3 | -51.0 | |||
| 2009-09-01T00:00 | 8976 | 327 | -34.4 | -51.0 | |||
| 2009-09-01T00:00 | 8980 | 327 | -34.5 | -51.0 | |||
| 2009-09-01T00:00 | 9012 | 326 | -34.7 | -50.9 | |||
| 2009-09-01T00:00 | 9031 | 325 | -34.8 | -50.8 | |||
| 2009-09-01T00:00 | 9043 | 324 | -34.9 | -50.8 | |||
| 2009-09-01T00:00 | 9055 | 324 | -35.0 | -50.8 | 226 | 14 | |
| 2009-09-01T00:00 | 9078 | 323 | -35.2 | -50.8 | |||
| 2009-09-01T00:00 | 9095 | 322 | -35.3 | -50.8 | |||
| 2009-09-01T00:00 | 9100 | 322 | -35.4 | -50.9 | |||
| 2009-09-01T00:00 | 9125 | 320 | -35.7 | -51.0 | |||
| 2009-09-01T00:00 | 9134 | 320 | -35.8 | -51.1 | |||
| 2009-09-01T00:00 | 9139 | 320 | -35.9 | -51.2 | |||
| 2009-09-01T00:00 | 9163 | 319 | -36.1 | -51.3 | |||
| 2009-09-01T00:00 | 9179 | 318 | -36.1 | -51.3 | |||
| 2009-09-01T00:00 | 9184 | 318 | -36.2 | -51.3 | |||
| 2009-09-01T00:00 | 9214 | 316 | -36.4 | -51.5 | |||
| 2009-09-01T00:00 | 9229 | 316 | -36.5 | -51.6 | |||
| 2009-09-01T00:00 | 9239 | 315 | -36.6 | -51.6 | |||
| 2009-09-01T00:00 | 9266 | 314 | -36.8 | -51.7 | |||
| 2009-09-01T00:00 | 9279 | 313 | -36.9 | -51.8 | |||
| 2009-09-01T00:00 | 9284 | 313 | -36.9 | -51.8 | |||
| 2009-09-01T00:00 | 9312 | 312 | -37.1 | -52.0 | |||
| 2009-09-01T00:00 | 9326 | 311 | -37.1 | -52.1 | |||
| 2009-09-01T00:00 | 9331 | 311 | -37.1 | -52.2 | 224 | 17 | |
| 2009-09-01T00:00 | 9336 | 311 | -37.2 | -52.2 | |||
| 2009-09-01T00:00 | 9367 | 309 | -37.4 | -52.7 | |||
| 2009-09-01T00:00 | 9384 | 309 | -37.5 | -52.9 | |||
| 2009-09-01T00:00 | 9389 | 308 | -37.6 | -53.0 | |||
| 2009-09-01T00:00 | 9418 | 307 | -37.5 | -53.2 | |||
| 2009-09-01T00:00 | 9430 | 307 | -37.5 | -53.3 | |||
| 2009-09-01T00:00 | 9438 | 306 | -37.5 | -53.4 | |||
| 2009-09-01T00:00 | 9466 | 305 | -37.7 | -53.8 | |||
| 2009-09-01T00:00 | 9482 | 304 | -37.8 | -54.1 | |||
| 2009-09-01T00:00 | 9487 | 304 | -37.9 | -54.2 | |||
| 2009-09-01T00:00 | 9518 | 303 | -38.2 | -54.9 | |||
| 2009-09-01T00:00 | 9533 | 302 | -38.3 | -55.2 | |||
| 2009-09-01T00:00 | 9543 | 302 | -38.3 | -55.5 | |||
| 2009-09-01T00:00 | 9572 | 300 | -38.6 | -56.2 | |||
| 2009-09-01T00:00 | 9579 | 300 | -38.6 | -56.4 | |||
| 2009-09-01T00:00 | 9586 | 300 | -38.7 | -56.5 | |||
| 2009-09-01T00:00 | 9591 | 299 | -38.7 | -56.6 | |||
| 2009-09-01T00:00 | 9618 | 298 | -38.7 | -56.9 | |||
| 2009-09-01T00:00 | 9622 | 298 | -38.7 | -56.9 | 223 | 19 | |
| 2009-09-01T00:00 | 9631 | 298 | -38.6 | -56.9 | |||
| 2009-09-01T00:00 | 9640 | 297 | -38.6 | -57.0 | |||
| 2009-09-01T00:00 | 9665 | 296 | -38.6 | -56.9 | |||
| 2009-09-01T00:00 | 9678 | 296 | -38.7 | -56.9 | |||
| 2009-09-01T00:00 | 9682 | 296 | -38.7 | -56.9 | |||
| 2009-09-01T00:00 | 9708 | 294 | -38.8 | -56.9 | |||
| 2009-09-01T00:00 | 9722 | 294 | -38.8 | -56.8 | |||
| 2009-09-01T00:00 | 9732 | 293 | -38.9 | -56.9 | |||
| 2009-09-01T00:00 | 9760 | 292 | -39.1 | -57.0 | |||
| 2009-09-01T00:00 | 9774 | 292 | -39.2 | -57.1 | |||
| 2009-09-01T00:00 | 9779 | 291 | -39.3 | -57.2 | |||
| 2009-09-01T00:00 | 9805 | 290 | -39.6 | -57.5 | |||
| 2009-09-01T00:00 | 9818 | 290 | -39.7 | -57.6 | |||
| 2009-09-01T00:00 | 9826 | 289 | -39.7 | -57.7 | |||
| 2009-09-01T00:00 | 9851 | 288 | -39.9 | -57.9 | |||
| 2009-09-01T00:00 | 9865 | 288 | -40.0 | -58.0 | |||
| 2009-09-01T00:00 | 9869 | 288 | -40.0 | -58.1 | |||
| 2009-09-01T00:00 | 9886 | 287 | -40.2 | -58.2 | 219 | 20 | |
| 2009-09-01T00:00 | 9894 | 287 | -40.2 | -58.3 | |||
| 2009-09-01T00:00 | 9905 | 286 | -40.3 | -58.4 | |||
| 2009-09-01T00:00 | 9912 | 286 | -40.4 | -58.4 | |||
| 2009-09-01T00:00 | 9941 | 285 | -40.6 | -58.6 | |||
| 2009-09-01T00:00 | 9959 | 284 | -40.7 | -58.6 | |||
| 2009-09-01T00:00 | 9965 | 284 | -40.8 | -58.7 | |||
| 2009-09-01T00:00 | 9994 | 282 | -41.0 | -58.7 | |||
| 2009-09-01T00:00 | 10006 | 282 | -41.0 | -58.7 | |||
| 2009-09-01T00:00 | 10014 | 282 | -41.1 | -58.7 | |||
| 2009-09-01T00:00 | 10039 | 280 | -41.3 | -58.8 | |||
| 2009-09-01T00:00 | 10052 | 280 | -41.3 | -58.8 | |||
| 2009-09-01T00:00 | 10057 | 280 | -41.4 | -58.8 | |||
| 2009-09-01T00:00 | 10083 | 279 | -41.6 | -58.9 | |||
| 2009-09-01T00:00 | 10101 | 278 | -41.6 | -58.8 | |||
| 2009-09-01T00:00 | 10106 | 278 | -41.7 | -58.8 | |||
| 2009-09-01T00:00 | 10131 | 277 | -41.8 | -58.9 | |||
| 2009-09-01T00:00 | 10144 | 276 | -41.9 | -58.9 | |||
| 2009-09-01T00:00 | 10152 | 276 | -42.0 | -58.9 | 217 | 19 | |
| 2009-09-01T00:00 | 10182 | 275 | -42.3 | -59.1 | |||
| 2009-09-01T00:00 | 10200 | 274 | -42.4 | -59.1 | |||
| 2009-09-01T00:00 | 10206 | 274 | -42.5 | -59.2 | |||
| 2009-09-01T00:00 | 10239 | 272 | -42.8 | -59.5 | |||
| 2009-09-01T00:00 | 10254 | 272 | -42.8 | -59.6 | |||
| 2009-09-01T00:00 | 10264 | 271 | -42.9 | -59.7 | |||
| 2009-09-01T00:00 | 10294 | 270 | -43.2 | -60.0 | |||
| 2009-09-01T00:00 | 10309 | 270 | -43.3 | -60.2 | |||
| 2009-09-01T00:00 | 10313 | 269 | -43.3 | -60.3 | |||
| 2009-09-01T00:00 | 10343 | 268 | -43.6 | -60.6 | |||
| 2009-09-01T00:00 | 10364 | 267 | -43.7 | -60.7 | |||
| 2009-09-01T00:00 | 10369 | 267 | -43.8 | -60.8 | |||
| 2009-09-01T00:00 | 10398 | 266 | -43.9 | -60.9 | |||
| 2009-09-01T00:00 | 10412 | 265 | -43.9 | -60.9 | |||
| 2009-09-01T00:00 | 10421 | 265 | -43.9 | -61.0 | |||
| 2009-09-01T00:00 | 10447 | 264 | -44.2 | -61.1 | |||
| 2009-09-01T00:00 | 10450 | 264 | -44.2 | -61.2 | 218 | 19 | |
| 2009-09-01T00:00 | 10458 | 264 | -44.3 | -61.3 | |||
| 2009-09-01T00:00 | 10462 | 263 | -44.4 | -61.3 | |||
| 2009-09-01T00:00 | 10487 | 262 | -44.7 | -61.6 | |||
| 2009-09-01T00:00 | 10509 | 262 | -44.7 | -61.7 | |||
| 2009-09-01T00:00 | 10515 | 261 | -44.8 | -61.8 | |||
| 2009-09-01T00:00 | 10545 | 260 | -45.0 | -61.9 | |||
| 2009-09-01T00:00 | 10558 | 260 | -45.0 | -62.0 | |||
| 2009-09-01T00:00 | 10567 | 259 | -45.1 | -62.0 | |||
| 2009-09-01T00:00 | 10593 | 258 | -45.2 | -62.2 | |||
| 2009-09-01T00:00 | 10606 | 258 | -45.3 | -62.2 | |||
| 2009-09-01T00:00 | 10610 | 258 | -45.3 | -62.2 | |||
| 2009-09-01T00:00 | 10634 | 257 | -45.5 | -62.4 | |||
| 2009-09-01T00:00 | 10648 | 256 | -45.5 | -62.4 | |||
| 2009-09-01T00:00 | 10652 | 256 | -45.5 | -62.4 | |||
| 2009-09-01T00:00 | 10674 | 255 | -45.8 | -62.6 | |||
| 2009-09-01T00:00 | 10686 | 255 | -45.8 | -62.6 | |||
| 2009-09-01T00:00 | 10693 | 254 | -45.7 | -62.6 | |||
| 2009-09-01T00:00 | 10706 | 254 | -45.8 | -62.7 | 219 | 19 | |
| 2009-09-01T00:00 | 10719 | 253 | -45.9 | -62.7 | |||
| 2009-09-01T00:00 | 10733 | 253 | -45.9 | -62.7 | |||
| 2009-09-01T00:00 | 10738 | 253 | -45.9 | -62.7 | |||
| 2009-09-01T00:00 | 10767 | 252 | -46.2 | -62.9 | |||
| 2009-09-01T00:00 | 10785 | 251 | -46.3 | -63.0 | |||
| 2009-09-01T00:00 | 10790 | 251 | -46.3 | -63.0 | |||
| 2009-09-01T00:00 | 10810 | 250 | -46.5 | -63.2 | |||
| 2009-09-01T00:00 | 10815 | 250 | -46.6 | -63.2 | |||
| 2009-09-01T00:00 | 10827 | 249 | -46.7 | -63.3 | |||
| 2009-09-01T00:00 | 10835 | 249 | -46.7 | -63.4 | |||
| 2009-09-01T00:00 | 10859 | 248 | -47.0 | -63.6 | |||
| 2009-09-01T00:00 | 10870 | 248 | -47.0 | -63.7 | |||
| 2009-09-01T00:00 | 10874 | 248 | -47.1 | -63.7 | |||
| 2009-09-01T00:00 | 10900 | 247 | -47.3 | -63.9 | |||
| 2009-09-01T00:00 | 10920 | 246 | -47.3 | -63.9 | |||
| 2009-09-01T00:00 | 10925 | 246 | -47.3 | -63.9 | |||
| 2009-09-01T00:00 | 10952 | 245 | -47.5 | -64.1 | |||
| 2009-09-01T00:00 | 10964 | 244 | -47.5 | -64.1 | |||
| 2009-09-01T00:00 | 10968 | 244 | -47.5 | -64.1 | 218 | 21 | |
| 2009-09-01T00:00 | 10972 | 244 | -47.5 | -64.1 | |||
| 2009-09-01T00:00 | 10996 | 243 | -47.4 | -64.1 | |||
| 2009-09-01T00:00 | 11009 | 243 | -47.4 | -64.1 | |||
| 2009-09-01T00:00 | 11018 | 242 | -47.5 | -64.1 | |||
| 2009-09-01T00:00 | 11041 | 241 | -47.7 | -64.2 | |||
| 2009-09-01T00:00 | 11051 | 241 | -47.7 | -64.2 | |||
| 2009-09-01T00:00 | 11054 | 241 | -47.7 | -64.3 | |||
| 2009-09-01T00:00 | 11076 | 240 | -48.0 | -64.5 | |||
| 2009-09-01T00:00 | 11092 | 240 | -48.0 | -64.5 | |||
| 2009-09-01T00:00 | 11096 | 239 | -48.1 | -64.6 | |||
| 2009-09-01T00:00 | 11121 | 238 | -48.4 | -64.8 | |||
| 2009-09-01T00:00 | 11135 | 238 | -48.5 | -64.9 | |||
| 2009-09-01T00:00 | 11144 | 238 | -48.5 | -64.9 | |||
| 2009-09-01T00:00 | 11170 | 237 | -48.7 | -65.1 | |||
| 2009-09-01T00:00 | 11182 | 236 | -48.8 | -65.1 | |||
| 2009-09-01T00:00 | 11186 | 236 | -48.8 | -65.2 | |||
| 2009-09-01T00:00 | 11212 | 235 | -49.0 | -65.3 | 224 | 19 | |
| 2009-09-01T00:00 | 11216 | 235 | -49.0 | -65.4 | |||
| 2009-09-01T00:00 | 11230 | 235 | -49.1 | -65.4 | |||
| 2009-09-01T00:00 | 11235 | 234 | -49.1 | -65.4 | |||
| 2009-09-01T00:00 | 11259 | 234 | -49.2 | -65.6 | |||
| 2009-09-01T00:00 | 11270 | 233 | -49.2 | -65.6 | |||
| 2009-09-01T00:00 | 11278 | 233 | -49.2 | -65.6 | |||
| 2009-09-01T00:00 | 11302 | 232 | -49.3 | -65.6 | |||
| 2009-09-01T00:00 | 11315 | 232 | -49.2 | -65.6 | |||
| 2009-09-01T00:00 | 11323 | 231 | -49.3 | -65.6 | |||
| 2009-09-01T00:00 | 11348 | 230 | -49.5 | -65.8 | |||
| 2009-09-01T00:00 | 11360 | 230 | -49.5 | -65.9 | |||
| 2009-09-01T00:00 | 11364 | 230 | -49.6 | -65.9 | |||
| 2009-09-01T00:00 | 11390 | 229 | -49.8 | -66.1 | |||
| 2009-09-01T00:00 | 11411 | 228 | -49.8 | -66.2 | |||
| 2009-09-01T00:00 | 11417 | 228 | -49.9 | -66.2 | |||
| 2009-09-01T00:00 | 11447 | 227 | -50.1 | -66.4 | |||
| 2009-09-01T00:00 | 11462 | 226 | -50.0 | -66.4 | |||
| 2009-09-01T00:00 | 11471 | 226 | -50.0 | -66.4 | |||
| 2009-09-01T00:00 | 11476 | 226 | -50.0 | -66.4 | 233 | 14 | |
| 2009-09-01T00:00 | 11499 | 225 | -50.0 | -66.4 | |||
| 2009-09-01T00:00 | 11512 | 225 | -50.0 | -66.4 | |||
| 2009-09-01T00:00 | 11521 | 224 | -50.0 | -66.4 | |||
| 2009-09-01T00:00 | 11545 | 224 | -50.1 | -66.5 | |||
| 2009-09-01T00:00 | 11556 | 223 | -50.1 | -66.5 | |||
| 2009-09-01T00:00 | 11560 | 223 | -50.2 | -66.6 | |||
| 2009-09-01T00:00 | 11591 | 222 | -50.4 | -66.8 | |||
| 2009-09-01T00:00 | 11608 | 221 | -50.5 | -66.8 | |||
| 2009-09-01T00:00 | 11613 | 221 | -50.5 | -66.9 | |||
| 2009-09-01T00:00 | 11641 | 220 | -50.8 | -67.1 | |||
| 2009-09-01T00:00 | 11656 | 220 | -50.8 | -67.2 | |||
| 2009-09-01T00:00 | 11659 | 220 | -50.9 | -67.3 | |||
| 2009-09-01T00:00 | 11684 | 219 | -51.2 | -67.5 | |||
| 2009-09-01T00:00 | 11697 | 218 | -51.2 | -67.6 | |||
| 2009-09-01T00:00 | 11706 | 218 | -51.3 | -67.6 | |||
| 2009-09-01T00:00 | 11731 | 217 | -51.4 | -67.8 | |||
| 2009-09-01T00:00 | 11735 | 217 | -51.4 | -67.8 | 235 | 12 | |
| 2009-09-01T00:00 | 11743 | 217 | -51.5 | -67.8 | |||
| 2009-09-01T00:00 | 11752 | 217 | -51.5 | -67.9 | |||
| 2009-09-01T00:00 | 11776 | 216 | -51.4 | -67.9 | |||
| 2009-09-01T00:00 | 11789 | 215 | -51.5 | -67.9 | |||
| 2009-09-01T00:00 | 11793 | 215 | -51.5 | -68.0 | |||
| 2009-09-01T00:00 | 11819 | 214 | -51.6 | -68.1 | |||
| 2009-09-01T00:00 | 11837 | 214 | -51.6 | -68.1 | |||
| 2009-09-01T00:00 | 11841 | 214 | -51.6 | -68.2 | |||
| 2009-09-01T00:00 | 11870 | 213 | -51.9 | -68.4 | |||
| 2009-09-01T00:00 | 11885 | 212 | -51.9 | -68.4 | |||
| 2009-09-01T00:00 | 11895 | 212 | -51.9 | -68.4 | |||
| 2009-09-01T00:00 | 11923 | 211 | -52.0 | -68.5 | |||
| 2009-09-01T00:00 | 11935 | 211 | -52.0 | -68.5 | |||
| 2009-09-01T00:00 | 11943 | 210 | -52.0 | -68.6 | |||
| 2009-09-01T00:00 | 11968 | 209 | -52.1 | -68.7 | |||
| 2009-09-01T00:00 | 11980 | 209 | -52.2 | -68.7 | |||
| 2009-09-01T00:00 | 11989 | 209 | -52.2 | -68.7 | |||
| 2009-09-01T00:00 | 11997 | 209 | -52.1 | -68.7 | 234 | 10 | |
| 2009-09-01T00:00 | 12013 | 208 | -52.0 | -68.6 | |||
| 2009-09-01T00:00 | 12024 | 208 | -52.0 | -68.6 | |||
| 2009-09-01T00:00 | 12028 | 208 | -52.1 | -68.7 | |||
| 2009-09-01T00:00 | 12051 | 207 | -52.3 | -68.9 | |||
| 2009-09-01T00:00 | 12066 | 206 | -52.4 | -68.9 | |||
| 2009-09-01T00:00 | 12070 | 206 | -52.4 | -69.0 | |||
| 2009-09-01T00:00 | 12096 | 205 | -52.7 | -69.2 | |||
| 2009-09-01T00:00 | 12111 | 205 | -52.6 | -69.2 | |||
| 2009-09-01T00:00 | 12120 | 205 | -52.6 | -69.2 | |||
| 2009-09-01T00:00 | 12147 | 204 | -52.3 | -69.0 | |||
| 2009-09-01T00:00 | 12160 | 203 | -52.3 | -69.0 | |||
| 2009-09-01T00:00 | 12168 | 203 | -52.4 | -69.0 | |||
| 2009-09-01T00:00 | 12194 | 202 | -52.6 | -69.2 | |||
| 2009-09-01T00:00 | 12208 | 202 | -52.7 | -69.3 | |||
| 2009-09-01T00:00 | 12217 | 202 | -52.7 | -69.4 | |||
| 2009-09-01T00:00 | 12241 | 201 | -52.9 | -69.6 | |||
| 2009-09-01T00:00 | 12248 | 201 | -53.0 | -69.6 | 247 | 9 | |
| 2009-09-01T00:00 | 12252 | 200 | -53.0 | -69.6 | |||
| 2009-09-01T00:00 | 12255 | 200 | -53.1 | -69.7 | |||
| 2009-09-01T00:00 | 12267 | 200 | -53.1 | -69.7 | |||
| 2009-09-01T00:00 | 12279 | 200 | -53.1 | ||||
| 2009-09-01T00:00 | 12299 | 199 | -53.2 | ||||
| 2009-09-01T00:00 | 12304 | 199 | -53.3 | ||||
| 2009-09-01T00:00 | 12333 | 198 | -53.4 | ||||
| 2009-09-01T00:00 | 12347 | 198 | -53.4 | ||||
| 2009-09-01T00:00 | 12356 | 197 | -53.4 | ||||
| 2009-09-01T00:00 | 12381 | 196 | -53.5 | ||||
| 2009-09-01T00:00 | 12393 | 196 | -53.5 | ||||
| 2009-09-01T00:00 | 12401 | 196 | -53.6 | ||||
| 2009-09-01T00:00 | 12424 | 195 | -53.9 | ||||
| 2009-09-01T00:00 | 12435 | 195 | -53.8 | ||||
| 2009-09-01T00:00 | 12442 | 195 | -53.8 | ||||
| 2009-09-01T00:00 | 12466 | 194 | -54.0 | ||||
| 2009-09-01T00:00 | 12478 | 194 | -53.8 | ||||
| 2009-09-01T00:00 | 12482 | 193 | -53.8 | ||||
| 2009-09-01T00:00 | 12500 | 193 | -53.8 | 258 | 9 | ||
| 2009-09-01T00:00 | 12513 | 192 | -53.8 | ||||
| 2009-09-01T00:00 | 12528 | 192 | -53.8 | ||||
| 2009-09-01T00:00 | 12533 | 192 | -53.8 | ||||
| 2009-09-01T00:00 | 12562 | 191 | -53.8 | ||||
| 2009-09-01T00:00 | 12581 | 190 | -53.9 | ||||
| 2009-09-01T00:00 | 12586 | 190 | -53.9 | ||||
| 2009-09-01T00:00 | 12613 | 190 | -54.2 | ||||
| 2009-09-01T00:00 | 12626 | 189 | -54.2 | ||||
| 2009-09-01T00:00 | 12635 | 189 | -54.3 | ||||
| 2009-09-01T00:00 | 12661 | 188 | -54.6 | ||||
| 2009-09-01T00:00 | 12674 | 188 | -54.6 | ||||
| 2009-09-01T00:00 | 12683 | 187 | -54.7 | ||||
| 2009-09-01T00:00 | 12711 | 187 | -54.9 | ||||
| 2009-09-01T00:00 | 12726 | 186 | -55.0 | ||||
| 2009-09-01T00:00 | 12736 | 186 | -55.1 | ||||
| 2009-09-01T00:00 | 12763 | 185 | -55.2 | ||||
| 2009-09-01T00:00 | 12774 | 185 | -55.0 | 272 | 8 | ||
| 2009-09-01T00:00 | 12778 | 185 | -55.0 | ||||
| 2009-09-01T00:00 | 12807 | 184 | -55.0 | ||||
| 2009-09-01T00:00 | 12821 | 183 | -55.0 | ||||
| 2009-09-01T00:00 | 12826 | 183 | -55.1 | ||||
| 2009-09-01T00:00 | 12855 | 182 | -55.3 | ||||
| 2009-09-01T00:00 | 12876 | 182 | -55.4 | ||||
| 2009-09-01T00:00 | 12881 | 182 | -55.4 | ||||
| 2009-09-01T00:00 | 12907 | 181 | -55.5 | ||||
| 2009-09-01T00:00 | 12919 | 181 | -55.5 | ||||
| 2009-09-01T00:00 | 12927 | 180 | -55.5 | ||||
| 2009-09-01T00:00 | 12953 | 180 | -55.8 | ||||
| 2009-09-01T00:00 | 12967 | 179 | -55.8 | ||||
| 2009-09-01T00:00 | 12976 | 179 | -55.9 | ||||
| 2009-09-01T00:00 | 13004 | 178 | -56.2 | ||||
| 2009-09-01T00:00 | 13017 | 178 | -56.2 | ||||
| 2009-09-01T00:00 | 13027 | 178 | -56.3 | ||||
| 2009-09-01T00:00 | 13046 | 177 | -56.5 | 284 | 9 | ||
| 2009-09-01T00:00 | 13055 | 177 | -56.6 | ||||
| 2009-09-01T00:00 | 13070 | 176 | -56.7 | ||||
| 2009-09-01T00:00 | 13080 | 176 | -56.7 | ||||
| 2009-09-01T00:00 | 13107 | 175 | -56.9 | ||||
| 2009-09-01T00:00 | 13119 | 175 | -57.0 | ||||
| 2009-09-01T00:00 | 13123 | 175 | -57.1 | ||||
| 2009-09-01T00:00 | 13154 | 174 | -57.3 | ||||
| 2009-09-01T00:00 | 13168 | 174 | -57.3 | ||||
| 2009-09-01T00:00 | 13173 | 174 | -57.3 | ||||
| 2009-09-01T00:00 | 13201 | 173 | -57.5 | ||||
| 2009-09-01T00:00 | 13218 | 172 | -57.6 | ||||
| 2009-09-01T00:00 | 13223 | 172 | -57.6 | ||||
| 2009-09-01T00:00 | 13253 | 171 | -57.9 | ||||
| 2009-09-01T00:00 | 13276 | 171 | -57.9 | ||||
| 2009-09-01T00:00 | 13282 | 171 | -58.0 | ||||
| 2009-09-01T00:00 | 13310 | 170 | -58.2 | ||||
| 2009-09-01T00:00 | 13325 | 169 | -58.2 | 289 | 7 | ||
| 2009-09-01T00:00 | 13328 | 169 | -58.3 | ||||
| 2009-09-01T00:00 | 13354 | 169 | -58.6 | ||||
| 2009-09-01T00:00 | 13370 | 168 | -58.7 | ||||
| 2009-09-01T00:00 | 13380 | 168 | -58.7 | ||||
| 2009-09-01T00:00 | 13409 | 167 | -58.8 | ||||
| 2009-09-01T00:00 | 13424 | 167 | -58.9 | ||||
| 2009-09-01T00:00 | 13434 | 167 | -59.0 | ||||
| 2009-09-01T00:00 | 13460 | 166 | -59.3 | ||||
| 2009-09-01T00:00 | 13472 | 165 | -59.4 | ||||
| 2009-09-01T00:00 | 13480 | 165 | -59.4 | ||||
| 2009-09-01T00:00 | 13506 | 165 | -59.7 | ||||
| 2009-09-01T00:00 | 13520 | 164 | -59.6 | ||||
| 2009-09-01T00:00 | 13530 | 164 | -59.6 | ||||
| 2009-09-01T00:00 | 13558 | 163 | -59.6 | ||||
| 2009-09-01T00:00 | 13572 | 163 | -59.7 | ||||
| 2009-09-01T00:00 | 13581 | 163 | -59.8 | ||||
| 2009-09-01T00:00 | 13600 | 162 | -59.9 | 258 | 6 | ||
| 2009-09-01T00:00 | 13610 | 162 | -60.0 | ||||
| 2009-09-01T00:00 | 13624 | 162 | -60.0 | ||||
| 2009-09-01T00:00 | 13633 | 161 | -60.1 | ||||
| 2009-09-01T00:00 | 13661 | 161 | -60.1 | ||||
| 2009-09-01T00:00 | 13675 | 160 | -60.2 | ||||
| 2009-09-01T00:00 | 13684 | 160 | -60.1 | ||||
| 2009-09-01T00:00 | 13711 | 159 | -60.3 | ||||
| 2009-09-01T00:00 | 13723 | 159 | -60.3 | ||||
| 2009-09-01T00:00 | 13732 | 159 | -60.3 | ||||
| 2009-09-01T00:00 | 13757 | 158 | -60.3 | ||||
| 2009-09-01T00:00 | 13769 | 158 | -60.3 | ||||
| 2009-09-01T00:00 | 13773 | 158 | -60.3 | ||||
| 2009-09-01T00:00 | 13803 | 157 | -60.6 | ||||
| 2009-09-01T00:00 | 13816 | 157 | -60.6 | ||||
| 2009-09-01T00:00 | 13820 | 156 | -60.7 | ||||
| 2009-09-01T00:00 | 13851 | 156 | -60.9 | ||||
| 2009-09-01T00:00 | 13864 | 155 | -60.9 | 261 | 9 | ||
| 2009-09-01T00:00 | 13868 | 155 | -61.0 | ||||
| 2009-09-01T00:00 | 13894 | 155 | -61.0 | ||||
| 2009-09-01T00:00 | 13912 | 154 | -61.0 | ||||
| 2009-09-01T00:00 | 13916 | 154 | -61.1 | ||||
| 2009-09-01T00:00 | 13943 | 153 | -61.2 | ||||
| 2009-09-01T00:00 | 13963 | 153 | -61.2 | ||||
| 2009-09-01T00:00 | 13967 | 153 | -61.2 | ||||
| 2009-09-01T00:00 | 13996 | 152 | -61.0 | ||||
| 2009-09-01T00:00 | 14015 | 152 | -60.9 | ||||
| 2009-09-01T00:00 | 14020 | 152 | -60.9 | ||||
| 2009-09-01T00:00 | 14050 | 151 | -60.9 | ||||
| 2009-09-01T00:00 | 14070 | 150 | -60.9 | ||||
| 2009-09-01T00:00 | 14075 | 150 | -61.0 | ||||
| 2009-09-01T00:00 | 14084 | 150 | -61.0 | ||||
| 2009-09-01T00:00 | 14102 | 150 | -61.2 | ||||
| 2009-09-01T00:00 | 14116 | 149 | -61.2 | ||||
| 2009-09-01T00:00 | 14120 | 149 | -61.3 | ||||
| 2009-09-01T00:00 | 14135 | 149 | -61.4 | 271 | 8 | ||
| 2009-09-01T00:00 | 14142 | 149 | -61.4 | ||||
| 2009-09-01T00:00 | 14157 | 148 | -61.4 | ||||
| 2009-09-01T00:00 | 14160 | 148 | -61.3 | ||||
| 2009-09-01T00:00 | 14185 | 148 | -61.2 | ||||
| 2009-09-01T00:00 | 14203 | 147 | -61.1 | ||||
| 2009-09-01T00:00 | 14208 | 147 | -61.1 | ||||
| 2009-09-01T00:00 | 14234 | 146 | -61.2 | ||||
| 2009-09-01T00:00 | 14246 | 146 | -61.1 | ||||
| 2009-09-01T00:00 | 14254 | 146 | -61.1 | ||||
| 2009-09-01T00:00 | 14280 | 145 | -61.0 | ||||
| 2009-09-01T00:00 | 14295 | 145 | -61.0 | ||||
| 2009-09-01T00:00 | 14304 | 145 | -61.0 | ||||
| 2009-09-01T00:00 | 14330 | 144 | -61.1 | ||||
| 2009-09-01T00:00 | 14341 | 144 | -61.0 | ||||
| 2009-09-01T00:00 | 14348 | 144 | -61.0 | ||||
| 2009-09-01T00:00 | 14375 | 143 | -61.1 | ||||
| 2009-09-01T00:00 | 14390 | 143 | -61.1 | 268 | 7 | ||
| 2009-09-01T00:00 | 14400 | 143 | -61.2 | ||||
| 2009-09-01T00:00 | 14429 | 142 | -61.2 | ||||
| 2009-09-01T00:00 | 14442 | 142 | -61.1 | ||||
| 2009-09-01T00:00 | 14450 | 141 | -61.1 | ||||
| 2009-09-01T00:00 | 14476 | 141 | -61.2 | ||||
| 2009-09-01T00:00 | 14489 | 141 | -61.2 | ||||
| 2009-09-01T00:00 | 14497 | 140 | -61.3 | ||||
| 2009-09-01T00:00 | 14523 | 140 | -61.4 | ||||
| 2009-09-01T00:00 | 14536 | 139 | -61.3 | ||||
| 2009-09-01T00:00 | 14545 | 139 | -61.4 | ||||
| 2009-09-01T00:00 | 14573 | 139 | -61.6 | ||||
| 2009-09-01T00:00 | 14588 | 138 | -61.6 | ||||
| 2009-09-01T00:00 | 14598 | 138 | -61.6 | ||||
| 2009-09-01T00:00 | 14627 | 137 | -61.8 | ||||
| 2009-09-01T00:00 | 14641 | 137 | -61.8 | ||||
| 2009-09-01T00:00 | 14651 | 137 | -61.8 | ||||
| 2009-09-01T00:00 | 14664 | 137 | -62.0 | 264 | 5 | ||
| 2009-09-01T00:00 | 14676 | 136 | -62.1 | ||||
| 2009-09-01T00:00 | 14686 | 136 | -62.1 | ||||
| 2009-09-01T00:00 | 14690 | 136 | -62.2 | ||||
| 2009-09-01T00:00 | 14719 | 135 | -62.4 | ||||
| 2009-09-01T00:00 | 14734 | 135 | -62.4 | ||||
| 2009-09-01T00:00 | 14739 | 135 | -62.4 | ||||
| 2009-09-01T00:00 | 14767 | 134 | -62.6 | ||||
| 2009-09-01T00:00 | 14785 | 134 | -62.6 | ||||
| 2009-09-01T00:00 | 14789 | 134 | -62.7 | ||||
| 2009-09-01T00:00 | 14816 | 133 | -62.9 | ||||
| 2009-09-01T00:00 | 14834 | 133 | -63.0 | ||||
| 2009-09-01T00:00 | 14838 | 133 | -63.0 | ||||
| 2009-09-01T00:00 | 14866 | 132 | -62.9 | ||||
| 2009-09-01T00:00 | 14885 | 132 | -62.7 | ||||
| 2009-09-01T00:00 | 14890 | 132 | -62.7 | ||||
| 2009-09-01T00:00 | 14919 | 131 | -62.8 | ||||
| 2009-09-01T00:00 | 14935 | 131 | -62.8 | 251 | 4 | ||
| 2009-09-01T00:00 | 14940 | 131 | -62.7 | ||||
| 2009-09-01T00:00 | 14945 | 131 | -62.7 | ||||
| 2009-09-01T00:00 | 14974 | 130 | -62.2 | ||||
| 2009-09-01T00:00 | 14992 | 130 | -62.3 | ||||
| 2009-09-01T00:00 | 14996 | 129 | -62.3 | ||||
| 2009-09-01T00:00 | 15025 | 129 | -61.8 | ||||
| 2009-09-01T00:00 | 15045 | 128 | -61.5 | ||||
| 2009-09-01T00:00 | 15050 | 128 | -61.4 | ||||
| 2009-09-01T00:00 | 15078 | 128 | -61.5 | ||||
| 2009-09-01T00:00 | 15091 | 127 | -61.5 | ||||
| 2009-09-01T00:00 | 15100 | 127 | -61.6 | ||||
| 2009-09-01T00:00 | 15129 | 127 | -61.8 | ||||
| 2009-09-01T00:00 | 15144 | 126 | -61.8 | ||||
| 2009-09-01T00:00 | 15155 | 126 | -61.9 | ||||
| 2009-09-01T00:00 | 15182 | 126 | -62.1 | ||||
| 2009-09-01T00:00 | 15193 | 125 | -62.1 | ||||
| 2009-09-01T00:00 | 15201 | 125 | -62.2 | ||||
| 2009-09-01T00:00 | 15214 | 125 | -62.3 | 221 | 5 | ||
| 2009-09-01T00:00 | 15228 | 125 | -62.5 | ||||
| 2009-09-01T00:00 | 15243 | 124 | -62.5 | ||||
| 2009-09-01T00:00 | 15254 | 124 | -62.5 | ||||
| 2009-09-01T00:00 | 15281 | 124 | -62.8 | ||||
| 2009-09-01T00:00 | 15293 | 123 | -62.7 | ||||
| 2009-09-01T00:00 | 15301 | 123 | -62.8 | ||||
| 2009-09-01T00:00 | 15325 | 123 | -62.8 | ||||
| 2009-09-01T00:00 | 15337 | 122 | -62.7 | ||||
| 2009-09-01T00:00 | 15345 | 122 | -62.8 | ||||
| 2009-09-01T00:00 | 15370 | 122 | -62.7 | ||||
| 2009-09-01T00:00 | 15383 | 122 | -62.5 | ||||
| 2009-09-01T00:00 | 15391 | 121 | -62.6 | ||||
| 2009-09-01T00:00 | 15418 | 121 | -62.7 | ||||
| 2009-09-01T00:00 | 15432 | 121 | -62.7 | ||||
| 2009-09-01T00:00 | 15442 | 120 | -62.7 | ||||
| 2009-09-01T00:00 | 15467 | 120 | -62.8 | ||||
| 2009-09-01T00:00 | 15474 | 120 | -62.8 | 224 | 7 | ||
| 2009-09-01T00:00 | 15478 | 120 | -62.8 | ||||
| 2009-09-01T00:00 | 15481 | 120 | -62.9 | ||||
| 2009-09-01T00:00 | 15506 | 119 | -62.7 | ||||
| 2009-09-01T00:00 | 15526 | 119 | -62.6 | ||||
| 2009-09-01T00:00 | 15531 | 119 | -62.6 | ||||
| 2009-09-01T00:00 | 15559 | 118 | -62.7 | ||||
| 2009-09-01T00:00 | 15576 | 118 | -62.3 | ||||
| 2009-09-01T00:00 | 15580 | 118 | -62.1 | ||||
| 2009-09-01T00:00 | 15607 | 117 | -61.9 | ||||
| 2009-09-01T00:00 | 15626 | 117 | -61.7 | ||||
| 2009-09-01T00:00 | 15631 | 117 | -61.8 | ||||
| 2009-09-01T00:00 | 15656 | 116 | -62.0 | ||||
| 2009-09-01T00:00 | 15668 | 116 | -62.0 | ||||
| 2009-09-01T00:00 | 15675 | 116 | -62.0 | ||||
| 2009-09-01T00:00 | 15702 | 115 | -61.7 | ||||
| 2009-09-01T00:00 | 15718 | 115 | -61.6 | ||||
| 2009-09-01T00:00 | 15728 | 115 | -61.6 | ||||
| 2009-09-01T00:00 | 15742 | 115 | -61.6 | 246 | 8 | ||
| 2009-09-01T00:00 | 15756 | 114 | -61.7 | ||||
| 2009-09-01T00:00 | 15769 | 114 | -61.7 | ||||
| 2009-09-01T00:00 | 15777 | 114 | -61.8 | ||||
| 2009-09-01T00:00 | 15803 | 114 | -62.0 | ||||
| 2009-09-01T00:00 | 15817 | 113 | -62.1 | ||||
| 2009-09-01T00:00 | 15826 | 113 | -62.1 | ||||
| 2009-09-01T00:00 | 15852 | 113 | -62.2 | ||||
| 2009-09-01T00:00 | 15864 | 112 | -62.2 | ||||
| 2009-09-01T00:00 | 15872 | 112 | -62.2 | ||||
| 2009-09-01T00:00 | 15899 | 112 | -62.1 | ||||
| 2009-09-01T00:00 | 15913 | 112 | -62.0 | ||||
| 2009-09-01T00:00 | 15918 | 111 | -62.0 | ||||
| 2009-09-01T00:00 | 15946 | 111 | -62.0 | ||||
| 2009-09-01T00:00 | 15964 | 111 | -61.9 | ||||
| 2009-09-01T00:00 | 15968 | 111 | -62.0 | ||||
| 2009-09-01T00:00 | 15996 | 110 | -62.1 | ||||
| 2009-09-01T00:00 | 16009 | 110 | -62.1 | 264 | 7 | ||
| 2009-09-01T00:00 | 16014 | 110 | -62.1 | ||||
| 2009-09-01T00:00 | 16018 | 110 | -62.2 | ||||
| 2009-09-01T00:00 | 16045 | 109 | -62.3 | ||||
| 2009-09-01T00:00 | 16064 | 109 | -62.3 | ||||
| 2009-09-01T00:00 | 16068 | 109 | -62.4 | ||||
| 2009-09-01T00:00 | 16095 | 108 | -62.5 | ||||
| 2009-09-01T00:00 | 16108 | 108 | -62.5 | ||||
| 2009-09-01T00:00 | 16116 | 108 | -62.5 | ||||
| 2009-09-01T00:00 | 16143 | 108 | -62.7 | ||||
| 2009-09-01T00:00 | 16157 | 107 | -62.8 | ||||
| 2009-09-01T00:00 | 16166 | 107 | -62.8 | ||||
| 2009-09-01T00:00 | 16193 | 107 | -63.0 | ||||
| 2009-09-01T00:00 | 16207 | 106 | -63.0 | ||||
| 2009-09-01T00:00 | 16216 | 106 | -63.0 | ||||
| 2009-09-01T00:00 | 16243 | 106 | -63.0 | ||||
| 2009-09-01T00:00 | 16256 | 106 | -62.9 | ||||
| 2009-09-01T00:00 | 16265 | 105 | -62.9 | ||||
| 2009-09-01T00:00 | 16279 | 105 | -62.9 | 265 | 4 | ||
| 2009-09-01T00:00 | 16292 | 105 | -62.9 | ||||
| 2009-09-01T00:00 | 16307 | 105 | -62.9 | ||||
| 2009-09-01T00:00 | 16316 | 105 | -62.9 | ||||
| 2009-09-01T00:00 | 16342 | 104 | -63.1 | ||||
| 2009-09-01T00:00 | 16354 | 104 | -63.1 | ||||
| 2009-09-01T00:00 | 16357 | 104 | -63.1 | ||||
| 2009-09-01T00:00 | 16382 | 103 | -63.0 | ||||
| 2009-09-01T00:00 | 16399 | 103 | -63.0 | ||||
| 2009-09-01T00:00 | 16403 | 103 | -63.0 | ||||
| 2009-09-01T00:00 | 16432 | 103 | -63.0 | ||||
| 2009-09-01T00:00 | 16453 | 102 | -63.1 | ||||
| 2009-09-01T00:00 | 16458 | 102 | -63.1 | ||||
| 2009-09-01T00:00 | 16488 | 102 | -63.2 | ||||
| 2009-09-01T00:00 | 16507 | 101 | -63.0 | ||||
| 2009-09-01T00:00 | 16512 | 101 | -63.0 | ||||
| 2009-09-01T00:00 | 16542 | 101 | -63.0 | ||||
| 2009-09-01T00:00 | 16558 | 100 | -62.8 | 218 | 3 | ||
| 2009-09-01T00:00 | 16568 | 100 | -62.7 | ||||
| 2009-09-01T00:00 | 16588 | 100 | -62.7 | ||||
| 2009-09-01T00:00 | 16598 | 100 | -62.7 | ||||
| 2009-09-01T00:00 | 16612 | 100 | -62.7 | ||||
| 2009-09-01T00:00 | 16621 | 99 | -62.7 | ||||
| 2009-09-01T00:00 | 16649 | 99 | -62.6 | ||||
| 2009-09-01T00:00 | 16663 | 99 | -62.5 | ||||
| 2009-09-01T00:00 | 16672 | 99 | -62.5 | ||||
| 2009-09-01T00:00 | 16698 | 98 | -62.3 | ||||
| 2009-09-01T00:00 | 16709 | 98 | -62.1 | ||||
| 2009-09-01T00:00 | 16717 | 98 | -62.1 | ||||
| 2009-09-01T00:00 | 16742 | 98 | -62.2 | ||||
| 2009-09-01T00:00 | 16755 | 97 | -62.1 | ||||
| 2009-09-01T00:00 | 16760 | 97 | -62.2 | ||||
| 2009-09-01T00:00 | 16787 | 97 | -62.0 | ||||
| 2009-09-01T00:00 | 16806 | 97 | -62.0 | ||||
| 2009-09-01T00:00 | 16811 | 96 | -62.0 | ||||
| 2009-09-01T00:00 | 16829 | 96 | -62.0 | 203 | 5 | ||
| 2009-09-01T00:00 | 16838 | 96 | -62.0 | ||||
| 2009-09-01T00:00 | 16850 | 96 | -62.0 | ||||
| 2009-09-01T00:00 | 16859 | 96 | -61.9 | ||||
| 2009-09-01T00:00 | 16886 | 95 | -61.9 | ||||
| 2009-09-01T00:00 | 16900 | 95 | -61.8 | ||||
| 2009-09-01T00:00 | 16909 | 95 | -61.8 | ||||
| 2009-09-01T00:00 | 16936 | 95 | -61.8 | ||||
| 2009-09-01T00:00 | 16949 | 94 | -61.7 | ||||
| 2009-09-01T00:00 | 16957 | 94 | -61.7 | ||||
| 2009-09-01T00:00 | 16984 | 94 | -61.6 | ||||
| 2009-09-01T00:00 | 16999 | 94 | -61.7 | ||||
| 2009-09-01T00:00 | 17004 | 93 | -61.7 | ||||
| 2009-09-01T00:00 | 17033 | 93 | -61.9 | ||||
| 2009-09-01T00:00 | 17052 | 93 | -62.0 | ||||
| 2009-09-01T00:00 | 17056 | 93 | -62.0 | ||||
| 2009-09-01T00:00 | 17085 | 92 | -62.2 | ||||
| 2009-09-01T00:00 | 17104 | 92 | -62.2 | 211 | 5 | ||
| 2009-09-01T00:00 | 17109 | 92 | -62.0 | ||||
| 2009-09-01T00:00 | 17136 | 92 | -62.0 | ||||
| 2009-09-01T00:00 | 17149 | 91 | -62.0 | ||||
| 2009-09-01T00:00 | 17157 | 91 | -62.0 | ||||
| 2009-09-01T00:00 | 17180 | 91 | -62.1 | ||||
| 2009-09-01T00:00 | 17191 | 91 | -62.0 | ||||
| 2009-09-01T00:00 | 17199 | 91 | -62.1 | ||||
| 2009-09-01T00:00 | 17225 | 90 | -62.2 | ||||
| 2009-09-01T00:00 | 17241 | 90 | -62.2 | ||||
| 2009-09-01T00:00 | 17251 | 90 | -62.2 | ||||
| 2009-09-01T00:00 | 17278 | 89 | -62.0 | ||||
| 2009-09-01T00:00 | 17289 | 89 | -61.8 | ||||
| 2009-09-01T00:00 | 17293 | 89 | -61.8 | ||||
| 2009-09-01T00:00 | 17319 | 89 | -61.7 | ||||
| 2009-09-01T00:00 | 17341 | 89 | -61.7 | ||||
| 2009-09-01T00:00 | 17346 | 88 | -61.7 | ||||
| 2009-09-01T00:00 | 17371 | 88 | -61.6 | 221 | 5 | ||
| 2009-09-01T00:00 | 17376 | 88 | -61.6 | ||||
| 2009-09-01T00:00 | 17391 | 88 | -61.6 | ||||
| 2009-09-01T00:00 | 17400 | 88 | -61.6 | ||||
| 2009-09-01T00:00 | 17430 | 87 | -61.8 | ||||
| 2009-09-01T00:00 | 17447 | 87 | -61.9 | ||||
| 2009-09-01T00:00 | 17458 | 87 | -62.0 | ||||
| 2009-09-01T00:00 | 17486 | 86 | -62.2 | ||||
| 2009-09-01T00:00 | 17497 | 86 | -62.0 | ||||
| 2009-09-01T00:00 | 17504 | 86 | -62.1 | ||||
| 2009-09-01T00:00 | 17530 | 86 | -61.9 | ||||
| 2009-09-01T00:00 | 17543 | 86 | -61.9 | ||||
| 2009-09-01T00:00 | 17548 | 86 | -61.9 | ||||
| 2009-09-01T00:00 | 17577 | 85 | -62.0 | ||||
| 2009-09-01T00:00 | 17599 | 85 | -61.9 | ||||
| 2009-09-01T00:00 | 17605 | 85 | -61.7 | ||||
| 2009-09-01T00:00 | 17635 | 84 | -61.6 | ||||
| 2009-09-01T00:00 | 17649 | 84 | -61.7 | ||||
| 2009-09-01T00:00 | 17658 | 84 | -61.7 | 237 | 5 | ||
| 2009-09-01T00:00 | 17685 | 84 | -61.8 | ||||
| 2009-09-01T00:00 | 17699 | 84 | -61.9 | ||||
| 2009-09-01T00:00 | 17709 | 83 | -62.0 | ||||
| 2009-09-01T00:00 | 17734 | 83 | -62.2 | ||||
| 2009-09-01T00:00 | 17746 | 83 | -62.2 | ||||
| 2009-09-01T00:00 | 17754 | 83 | -62.2 | ||||
| 2009-09-01T00:00 | 17777 | 82 | -62.0 | ||||
| 2009-09-01T00:00 | 17799 | 82 | -61.7 | ||||
| 2009-09-01T00:00 | 17804 | 82 | -61.8 | ||||
| 2009-09-01T00:00 | 17837 | 82 | -61.4 | ||||
| 2009-09-01T00:00 | 17858 | 81 | -61.3 | ||||
| 2009-09-01T00:00 | 17863 | 81 | -61.3 | ||||
| 2009-09-01T00:00 | 17892 | 81 | -61.4 | ||||
| 2009-09-01T00:00 | 17904 | 81 | -61.2 | ||||
| 2009-09-01T00:00 | 17912 | 81 | -61.2 | ||||
| 2009-09-01T00:00 | 17938 | 80 | -61.1 | 266 | 5 | ||
| 2009-09-01T00:00 | 17951 | 80 | -60.9 | ||||
| 2009-09-01T00:00 | 17960 | 80 | -60.9 | ||||
| 2009-09-01T00:00 | 17988 | 80 | -60.8 | ||||
| 2009-09-01T00:00 | 18002 | 80 | -60.8 | ||||
| 2009-09-01T00:00 | 18007 | 80 | -60.8 | ||||
| 2009-09-01T00:00 | 18034 | 79 | -60.8 | ||||
| 2009-09-01T00:00 | 18050 | 79 | -60.7 | ||||
| 2009-09-01T00:00 | 18054 | 79 | -60.7 | ||||
| 2009-09-01T00:00 | 18081 | 79 | -60.5 | ||||
| 2009-09-01T00:00 | 18095 | 78 | -60.3 | ||||
| 2009-09-01T00:00 | 18104 | 78 | -60.4 | ||||
| 2009-09-01T00:00 | 18134 | 78 | -60.5 | ||||
| 2009-09-01T00:00 | 18150 | 78 | -60.5 | ||||
| 2009-09-01T00:00 | 18156 | 78 | -60.5 | ||||
| 2009-09-01T00:00 | 18188 | 77 | -60.6 | ||||
| 2009-09-01T00:00 | 18208 | 77 | -60.7 | ||||
| 2009-09-01T00:00 | 18214 | 77 | -60.8 | ||||
| 2009-09-01T00:00 | 18223 | 77 | -60.8 | 282 | 4 | ||
| 2009-09-01T00:00 | 18241 | 77 | -61.0 | ||||
| 2009-09-01T00:00 | 18253 | 76 | -61.1 | ||||
| 2009-09-01T00:00 | 18260 | 76 | -61.0 | ||||
| 2009-09-01T00:00 | 18333 | 75 | -61.1 | ||||
| 2009-09-01T00:00 | 18350 | 75 | -61.2 | ||||
| 2009-09-01T00:00 | 18356 | 75 | -61.2 | ||||
| 2009-09-01T00:00 | 18388 | 75 | -61.1 | ||||
| 2009-09-01T00:00 | 18406 | 75 | -60.8 | ||||
| 2009-09-01T00:00 | 18410 | 74 | -60.8 | ||||
| 2009-09-01T00:00 | 18439 | 74 | -60.7 | ||||
| 2009-09-01T00:00 | 18455 | 74 | -60.5 | ||||
| 2009-09-01T00:00 | 18465 | 74 | -60.5 | ||||
| 2009-09-01T00:00 | 18495 | 74 | -60.6 | ||||
| 2009-09-01T00:00 | 18504 | 73 | -60.6 | 251 | 4 | ||
| 2009-09-01T00:00 | 18509 | 73 | -60.6 | ||||
| 2009-09-01T00:00 | 18518 | 73 | -60.6 | ||||
| 2009-09-01T00:00 | 18540 | 73 | -60.4 | ||||
| 2009-09-01T00:00 | 18556 | 73 | -60.3 | ||||
| 2009-09-01T00:00 | 18560 | 73 | -60.2 | ||||
| 2009-09-01T00:00 | 18588 | 72 | -60.1 | ||||
| 2009-09-01T00:00 | 18605 | 72 | -59.8 | ||||
| 2009-09-01T00:00 | 18616 | 72 | -59.7 | ||||
| 2009-09-01T00:00 | 18642 | 72 | -59.8 | ||||
| 2009-09-01T00:00 | 18651 | 72 | -59.8 | ||||
| 2009-09-01T00:00 | 18658 | 72 | -59.8 | ||||
| 2009-09-01T00:00 | 18684 | 71 | -60.0 | ||||
| 2009-09-01T00:00 | 18701 | 71 | -60.0 | ||||
| 2009-09-01T00:00 | 18707 | 71 | -60.1 | ||||
| 2009-09-01T00:00 | 18741 | 71 | -60.4 | ||||
| 2009-09-01T00:00 | 18757 | 70 | -60.5 | ||||
| 2009-09-01T00:00 | 18768 | 70 | -60.6 | ||||
| 2009-09-01T00:00 | 18787 | 70 | -60.7 | 238 | 5 | ||
| 2009-09-01T00:00 | 18797 | 70 | -60.7 | ||||
| 2009-09-01T00:00 | 18799 | 70 | -60.7 | ||||
| 2009-09-01T00:00 | 18809 | 70 | -60.7 | ||||
| 2009-09-01T00:00 | 18818 | 70 | -60.7 | ||||
| 2009-09-01T00:00 | 18844 | 69 | -60.7 | ||||
| 2009-09-01T00:00 | 18858 | 69 | -60.7 | ||||
| 2009-09-01T00:00 | 18863 | 69 | -60.6 | ||||
| 2009-09-01T00:00 | 18893 | 69 | -60.5 | ||||
| 2009-09-01T00:00 | 18915 | 69 | -60.2 | ||||
| 2009-09-01T00:00 | 18920 | 69 | -60.2 | ||||
| 2009-09-01T00:00 | 18952 | 68 | -60.3 | ||||
| 2009-09-01T00:00 | 18967 | 68 | -60.4 | ||||
| 2009-09-01T00:00 | 18977 | 68 | -60.4 | ||||
| 2009-09-01T00:00 | 19006 | 68 | -60.5 | ||||
| 2009-09-01T00:00 | 19020 | 68 | -60.4 | ||||
| 2009-09-01T00:00 | 19024 | 68 | -60.4 | ||||
| 2009-09-01T00:00 | 19053 | 67 | -60.5 | ||||
| 2009-09-01T00:00 | 19077 | 67 | -60.5 | ||||
| 2009-09-01T00:00 | 19083 | 67 | -60.4 | 253 | 3 | ||
| 2009-09-01T00:00 | 19118 | 66 | -60.1 | ||||
| 2009-09-01T00:00 | 19135 | 66 | -59.7 | ||||
| 2009-09-01T00:00 | 19147 | 66 | -59.7 | ||||
| 2009-09-01T00:00 | 19176 | 66 | -59.6 | ||||
| 2009-09-01T00:00 | 19188 | 66 | -59.2 | ||||
| 2009-09-01T00:00 | 19191 | 66 | -59.2 | ||||
| 2009-09-01T00:00 | 19218 | 65 | -58.8 | ||||
| 2009-09-01T00:00 | 19241 | 65 | -58.8 | ||||
| 2009-09-01T00:00 | 19247 | 65 | -58.9 | ||||
| 2009-09-01T00:00 | 19280 | 65 | -58.4 | ||||
| 2009-09-01T00:00 | 19296 | 65 | -58.4 | ||||
| 2009-09-01T00:00 | 19306 | 65 | -58.4 | ||||
| 2009-09-01T00:00 | 19331 | 64 | -58.3 | ||||
| 2009-09-01T00:00 | 19349 | 64 | -58.3 | ||||
| 2009-09-01T00:00 | 19353 | 64 | -58.3 | ||||
| 2009-09-01T00:00 | 19383 | 64 | -58.0 | ||||
| 2009-09-01T00:00 | 19399 | 64 | -57.6 | ||||
| 2009-09-01T00:00 | 19410 | 63 | -57.5 | ||||
| 2009-09-01T00:00 | 19442 | 63 | -57.4 | ||||
| 2009-09-01T00:00 | 19457 | 63 | -57.4 | ||||
| 2009-09-01T00:00 | 19462 | 63 | -57.5 | ||||
| 2009-09-01T00:00 | 19494 | 63 | -57.6 | ||||
| 2009-09-01T00:00 | 19511 | 62 | -57.5 | ||||
| 2009-09-01T00:00 | 19522 | 62 | -57.4 | ||||
| 2009-09-01T00:00 | 19553 | 62 | -57.2 | ||||
| 2009-09-01T00:00 | 19567 | 62 | -57.0 | ||||
| 2009-09-01T00:00 | 19572 | 62 | -57.0 | ||||
| 2009-09-01T00:00 | 19599 | 62 | -56.9 | ||||
| 2009-09-01T00:00 | 19615 | 61 | -56.7 | ||||
| 2009-09-01T00:00 | 19619 | 61 | -56.7 | ||||
| 2009-09-01T00:00 | 19649 | 61 | -56.7 | ||||
| 2009-09-01T00:00 | 19667 | 61 | -56.3 | ||||
| 2009-09-01T00:00 | 19679 | 61 | -56.4 | ||||
| 2009-09-01T00:00 | 19706 | 61 | -56.5 | ||||
| 2009-09-01T00:00 | 19732 | 60 | -56.6 | ||||
| 2009-09-01T00:00 | 19762 | 60 | -56.8 | ||||
| 2009-09-01T00:00 | 19776 | 60 | -56.8 | ||||
| 2009-09-01T00:00 | 19786 | 60 | -56.8 | ||||
| 2009-09-01T00:00 | 19812 | 60 | -56.6 | ||||
| 2009-09-01T00:00 | 19836 | 59 | -56.5 | ||||
| 2009-09-01T00:00 | 19841 | 59 | -56.6 | ||||
| 2009-09-01T12:00 | 491 | 959 | 24.5 | 17.2 | 30 | 1 | |
| 2009-09-01T12:00 | 516 | 956 | 23.2 | 17.3 | |||
| 2009-09-01T12:00 | 530 | 954 | 23.0 | 17.4 | |||
| 2009-09-01T12:00 | 535 | 954 | 23.0 | 17.4 | |||
| 2009-09-01T12:00 | 566 | 950 | 22.8 | 17.0 | |||
| 2009-09-01T12:00 | 577 | 949 | 22.6 | 16.9 | |||
| 2009-09-01T12:00 | 583 | 949 | 22.5 | 16.8 | |||
| 2009-09-01T12:00 | 592 | 948 | 22.5 | 16.8 | 21 | 1 | |
| 2009-09-01T12:00 | 610 | 946 | 22.4 | 16.7 | |||
| 2009-09-01T12:00 | 621 | 944 | 22.3 | 16.6 | |||
| 2009-09-01T12:00 | 625 | 944 | 22.2 | 16.6 | |||
| 2009-09-01T12:00 | 633 | 943 | 22.1 | 16.6 | 18 | 1 | |
| 2009-09-01T12:00 | 645 | 942 | 21.9 | 16.6 | |||
| 2009-09-01T12:00 | 659 | 940 | 21.8 | 16.5 | |||
| 2009-09-01T12:00 | 663 | 940 | 21.8 | 16.5 | |||
| 2009-09-01T12:00 | 678 | 938 | 21.6 | 16.5 | 15 | 1 | |
| 2009-09-01T12:00 | 688 | 937 | 21.5 | 16.5 | |||
| 2009-09-01T12:00 | 704 | 935 | 21.4 | 16.5 | |||
| 2009-09-01T12:00 | 709 | 935 | 21.3 | 16.5 | |||
| 2009-09-01T12:00 | 732 | 932 | 21.1 | 16.4 | 8 | 1 | |
| 2009-09-01T12:00 | 743 | 931 | 21.1 | 16.4 | |||
| 2009-09-01T12:00 | 755 | 930 | 20.9 | 16.4 | |||
| 2009-09-01T12:00 | 762 | 929 | 20.8 | 16.3 | |||
| 2009-09-01T12:00 | 792 | 926 | 20.7 | 16.3 | 359 | 1 | |
| 2009-09-01T12:00 | 798 | 925 | 20.7 | 16.3 | |||
| 2009-09-01T12:00 | 802 | 925 | 20.6 | 16.3 | |||
| 2009-09-01T12:00 | 817 | 923 | 20.5 | 16.3 | |||
| 2009-09-01T12:00 | 823 | 923 | 20.4 | 16.3 | |||
| 2009-09-01T12:00 | 853 | 919 | 20.1 | 16.1 | 336 | 1 | |
| 2009-09-01T12:00 | 870 | 918 | 20.0 | 16.0 | |||
| 2009-09-01T12:00 | 876 | 917 | 19.9 | 16.0 | |||
| 2009-09-01T12:00 | 911 | 913 | 19.4 | 16.0 | 274 | 0 | |
| 2009-09-01T12:00 | 924 | 912 | 19.3 | 16.0 | |||
| 2009-09-01T12:00 | 930 | 911 | 19.3 | 16.0 | |||
| 2009-09-01T12:00 | 965 | 908 | 19.2 | 15.9 | |||
| 2009-09-01T12:00 | 970 | 907 | 19.1 | 15.9 | 229 | 1 | |
| 2009-09-01T12:00 | 981 | 906 | 19.0 | 15.9 | |||
| 2009-09-01T12:00 | 987 | 905 | 18.9 | 15.9 | |||
| 2009-09-01T12:00 | 1016 | 902 | 18.7 | 15.7 | |||
| 2009-09-01T12:00 | 1030 | 901 | 18.6 | 15.7 | 216 | 2 | |
| 2009-09-01T12:00 | 1036 | 900 | 18.5 | 15.7 | |||
| 2009-09-01T12:00 | 1038 | 900 | 18.5 | 15.6 | |||
| 2009-09-01T12:00 | 1043 | 900 | 18.5 | 15.6 | |||
| 2009-09-01T12:00 | 1081 | 896 | 18.2 | 15.4 | |||
| 2009-09-01T12:00 | 1093 | 894 | 18.1 | 15.4 | 211 | 4 | |
| 2009-09-01T12:00 | 1099 | 894 | 18.0 | 15.3 | |||
| 2009-09-01T12:00 | 1105 | 893 | 18.0 | 15.3 | |||
| 2009-09-01T12:00 | 1133 | 890 | 18.1 | 14.9 | |||
| 2009-09-01T12:00 | 1148 | 889 | 17.9 | 14.7 | 208 | 5 | |
| 2009-09-01T12:00 | 1153 | 888 | 18.1 | 14.6 | |||
| 2009-09-01T12:00 | 1187 | 885 | 18.3 | 14.0 | |||
| 2009-09-01T12:00 | 1199 | 883 | 18.2 | 13.8 | |||
| 2009-09-01T12:00 | 1205 | 883 | 18.2 | 13.7 | 206 | 6 | |
| 2009-09-01T12:00 | 1242 | 879 | 18.4 | 12.9 | |||
| 2009-09-01T12:00 | 1260 | 877 | 18.2 | 12.5 | |||
| 2009-09-01T12:00 | 1266 | 876 | 18.3 | 12.4 | 205 | 7 | |
| 2009-09-01T12:00 | 1296 | 873 | 19.4 | 9.4 | |||
| 2009-09-01T12:00 | 1313 | 872 | 20.4 | 7.2 | |||
| 2009-09-01T12:00 | 1319 | 871 | 20.4 | 6.5 | |||
| 2009-09-01T12:00 | 1325 | 870 | 20.4 | 6.2 | 205 | 8 | |
| 2009-09-01T12:00 | 1352 | 868 | 20.3 | 5.2 | |||
| 2009-09-01T12:00 | 1362 | 867 | 20.4 | 5.0 | |||
| 2009-09-01T12:00 | 1368 | 866 | 20.4 | 4.9 | |||
| 2009-09-01T12:00 | 1379 | 865 | 20.4 | 4.8 | 206 | 9 | |
| 2009-09-01T12:00 | 1401 | 863 | 20.3 | 4.6 | |||
| 2009-09-01T12:00 | 1419 | 861 | 20.3 | 4.5 | |||
| 2009-09-01T12:00 | 1425 | 860 | 20.3 | 4.4 | |||
| 2009-09-01T12:00 | 1437 | 859 | 20.1 | 4.4 | 207 | 9 | |
| 2009-09-01T12:00 | 1455 | 857 | 20.0 | 4.3 | |||
| 2009-09-01T12:00 | 1472 | 856 | 19.8 | 4.3 | |||
| 2009-09-01T12:00 | 1478 | 855 | 19.9 | 4.3 | |||
| 2009-09-01T12:00 | 1494 | 854 | 19.8 | 3.9 | 209 | 10 | |
| 2009-09-01T12:00 | 1511 | 852 | 19.8 | 3.5 | |||
| 2009-09-01T12:00 | 1526 | 850 | 19.6 | 3.0 | |||
| 2009-09-01T12:00 | 1530 | 850 | 19.6 | 2.9 | |||
| 2009-09-01T12:00 | 1532 | 850 | 19.6 | 2.9 | |||
| 2009-09-01T12:00 | 1548 | 848 | 19.4 | 2.7 | 210 | 10 | |
| 2009-09-01T12:00 | 1559 | 847 | 19.3 | 2.6 | |||
| 2009-09-01T12:00 | 1575 | 846 | 19.2 | 2.4 | |||
| 2009-09-01T12:00 | 1581 | 845 | 19.2 | 2.4 | |||
| 2009-09-01T12:00 | 1601 | 843 | 19.2 | 2.0 | 210 | 10 | |
| 2009-09-01T12:00 | 1611 | 842 | 19.2 | 1.7 | |||
| 2009-09-01T12:00 | 1620 | 841 | 19.0 | 1.5 | |||
| 2009-09-01T12:00 | 1625 | 841 | 19.0 | 1.4 | |||
| 2009-09-01T12:00 | 1650 | 838 | 18.8 | 1.4 | 209 | 10 | |
| 2009-09-01T12:00 | 1654 | 838 | 18.7 | 1.4 | |||
| 2009-09-01T12:00 | 1672 | 836 | 18.5 | 1.5 | |||
| 2009-09-01T12:00 | 1677 | 836 | 18.4 | 1.6 | |||
| 2009-09-01T12:00 | 1704 | 833 | 18.5 | 1.8 | 208 | 10 | |
| 2009-09-01T12:00 | 1718 | 832 | 18.3 | 2.0 | |||
| 2009-09-01T12:00 | 1723 | 831 | 18.3 | 2.0 | |||
| 2009-09-01T12:00 | 1748 | 829 | 18.1 | 2.1 | 206 | 10 | |
| 2009-09-01T12:00 | 1760 | 827 | 18.1 | 2.1 | |||
| 2009-09-01T12:00 | 1764 | 827 | 18.1 | 2.1 | |||
| 2009-09-01T12:00 | 1789 | 825 | 17.9 | 2.0 | |||
| 2009-09-01T12:00 | 1795 | 824 | 17.9 | 2.0 | 204 | 10 | |
| 2009-09-01T12:00 | 1807 | 823 | 17.9 | 2.0 | |||
| 2009-09-01T12:00 | 1814 | 822 | 17.8 | 2.0 | |||
| 2009-09-01T12:00 | 1847 | 819 | 17.8 | 1.1 | |||
| 2009-09-01T12:00 | 1853 | 819 | 17.7 | 0.9 | 203 | 9 | |
| 2009-09-01T12:00 | 1858 | 818 | 17.6 | 0.7 | |||
| 2009-09-01T12:00 | 1863 | 818 | 17.6 | 0.5 | |||
| 2009-09-01T12:00 | 1893 | 815 | 17.5 | 0.1 | |||
| 2009-09-01T12:00 | 1904 | 814 | 17.5 | 0.0 | 202 | 9 | |
| 2009-09-01T12:00 | 1909 | 813 | 17.5 | 0.0 | |||
| 2009-09-01T12:00 | 1914 | 813 | 17.5 | -0.1 | |||
| 2009-09-01T12:00 | 1945 | 810 | 17.5 | -0.6 | |||
| 2009-09-01T12:00 | 1955 | 809 | 17.5 | -0.8 | 201 | 9 | |
| 2009-09-01T12:00 | 1961 | 808 | 17.4 | -0.9 | |||
| 2009-09-01T12:00 | 1995 | 805 | 17.4 | -0.9 | |||
| 2009-09-01T12:00 | 2015 | 803 | 17.2 | -0.9 | 201 | 8 | |
| 2009-09-01T12:00 | 2022 | 802 | 17.1 | -0.9 | |||
| 2009-09-01T12:00 | 2048 | 800 | 17.0 | -0.9 | |||
| 2009-09-01T12:00 | 2058 | 799 | 17.0 | -0.9 | |||
| 2009-09-01T12:00 | 2068 | 798 | 16.9 | -0.8 | |||
| 2009-09-01T12:00 | 2074 | 798 | 16.8 | -0.8 | 201 | 8 | |
| 2009-09-01T12:00 | 2107 | 794 | 16.6 | -0.6 | |||
| 2009-09-01T12:00 | 2126 | 793 | 16.5 | -0.6 | |||
| 2009-09-01T12:00 | 2132 | 792 | 16.4 | -0.5 | 201 | 7 | |
| 2009-09-01T12:00 | 2170 | 789 | 16.1 | 0.1 | |||
| 2009-09-01T12:00 | 2182 | 788 | 16.0 | 0.3 | |||
| 2009-09-01T12:00 | 2188 | 787 | 15.8 | 0.4 | |||
| 2009-09-01T12:00 | 2194 | 786 | 15.8 | 0.5 | 203 | 6 | |
| 2009-09-01T12:00 | 2227 | 783 | 15.6 | 0.7 | |||
| 2009-09-01T12:00 | 2247 | 782 | 15.5 | 0.8 | |||
| 2009-09-01T12:00 | 2254 | 781 | 15.4 | 0.9 | |||
| 2009-09-01T12:00 | 2260 | 780 | 15.3 | 0.9 | 205 | 6 | |
| 2009-09-01T12:00 | 2290 | 778 | 15.0 | 0.9 | |||
| 2009-09-01T12:00 | 2301 | 777 | 14.8 | 0.9 | |||
| 2009-09-01T12:00 | 2306 | 776 | 14.8 | 0.9 | |||
| 2009-09-01T12:00 | 2317 | 775 | 14.7 | 1.0 | 207 | 6 | |
| 2009-09-01T12:00 | 2341 | 773 | 14.5 | 1.2 | |||
| 2009-09-01T12:00 | 2361 | 771 | 14.4 | 1.4 | |||
| 2009-09-01T12:00 | 2368 | 770 | 14.3 | 1.4 | |||
| 2009-09-01T12:00 | 2381 | 769 | 14.2 | 1.5 | 209 | 6 | |
| 2009-09-01T12:00 | 2408 | 767 | 13.9 | 1.5 | |||
| 2009-09-01T12:00 | 2421 | 766 | 13.7 | 1.5 | |||
| 2009-09-01T12:00 | 2427 | 765 | 13.6 | 1.5 | |||
| 2009-09-01T12:00 | 2448 | 763 | 13.4 | 1.4 | 212 | 5 | |
| 2009-09-01T12:00 | 2468 | 761 | 13.1 | 1.4 | |||
| 2009-09-01T12:00 | 2490 | 759 | 13.0 | 1.2 | |||
| 2009-09-01T12:00 | 2497 | 759 | 13.0 | 1.2 | |||
| 2009-09-01T12:00 | 2516 | 757 | 12.8 | 1.2 | 215 | 5 | |
| 2009-09-01T12:00 | 2535 | 755 | 12.7 | 1.2 | |||
| 2009-09-01T12:00 | 2546 | 754 | 12.5 | 1.3 | |||
| 2009-09-01T12:00 | 2551 | 754 | 12.5 | 1.3 | |||
| 2009-09-01T12:00 | 2574 | 752 | 12.2 | 1.2 | 217 | 6 | |
| 2009-09-01T12:00 | 2586 | 751 | 12.1 | 1.2 | |||
| 2009-09-01T12:00 | 2606 | 749 | 11.9 | 1.1 | |||
| 2009-09-01T12:00 | 2613 | 748 | 11.9 | 1.1 | |||
| 2009-09-01T12:00 | 2638 | 746 | 11.7 | 1.0 | 220 | 6 | |
| 2009-09-01T12:00 | 2650 | 745 | 11.6 | 1.0 | |||
| 2009-09-01T12:00 | 2667 | 743 | 11.5 | 1.0 | |||
| 2009-09-01T12:00 | 2672 | 743 | 11.3 | 1.0 | |||
| 2009-09-01T12:00 | 2694 | 741 | 11.1 | 0.9 | 223 | 6 | |
| 2009-09-01T12:00 | 2699 | 741 | 11.1 | 0.9 | |||
| 2009-09-01T12:00 | 2714 | 739 | 10.9 | 0.8 | |||
| 2009-09-01T12:00 | 2719 | 739 | 10.9 | 0.8 | |||
| 2009-09-01T12:00 | 2745 | 736 | 10.6 | 0.8 | 225 | 6 | |
| 2009-09-01T12:00 | 2751 | 736 | 10.5 | 0.8 | |||
| 2009-09-01T12:00 | 2769 | 734 | 10.4 | 0.8 | |||
| 2009-09-01T12:00 | 2774 | 734 | 10.4 | 0.8 | |||
| 2009-09-01T12:00 | 2804 | 731 | 10.1 | 0.7 | 228 | 6 | |
| 2009-09-01T12:00 | 2809 | 731 | 10.1 | 0.7 | |||
| 2009-09-01T12:00 | 2827 | 729 | 9.9 | 0.6 | |||
| 2009-09-01T12:00 | 2832 | 729 | 9.8 | 0.6 | |||
| 2009-09-01T12:00 | 2859 | 726 | 9.6 | 0.5 | 230 | 7 | |
| 2009-09-01T12:00 | 2874 | 725 | 9.4 | 0.5 | |||
| 2009-09-01T12:00 | 2879 | 725 | 9.3 | 0.5 | |||
| 2009-09-01T12:00 | 2911 | 722 | 9.1 | 0.4 | 233 | 7 | |
| 2009-09-01T12:00 | 2930 | 720 | 9.0 | 0.3 | |||
| 2009-09-01T12:00 | 2937 | 720 | 8.9 | 0.3 | |||
| 2009-09-01T12:00 | 2972 | 717 | 8.6 | 0.2 | 234 | 7 | |
| 2009-09-01T12:00 | 2988 | 715 | 8.5 | 0.2 | |||
| 2009-09-01T12:00 | 2993 | 715 | 8.4 | 0.2 | |||
| 2009-09-01T12:00 | 3026 | 712 | 8.1 | 0.2 | 235 | 7 | |
| 2009-09-01T12:00 | 3037 | 711 | 7.9 | 0.2 | |||
| 2009-09-01T12:00 | 3043 | 711 | 7.9 | 0.2 | |||
| 2009-09-01T12:00 | 3077 | 708 | 7.6 | 0.1 | |||
| 2009-09-01T12:00 | 3082 | 707 | 7.6 | 0.1 | 236 | 7 | |
| 2009-09-01T12:00 | 3093 | 706 | 7.5 | 0.0 | |||
| 2009-09-01T12:00 | 3099 | 706 | 7.4 | 0.0 | |||
| 2009-09-01T12:00 | 3134 | 703 | 7.0 | -0.1 | |||
| 2009-09-01T12:00 | 3140 | 702 | 7.0 | -0.1 | 236 | 8 | |
| 2009-09-01T12:00 | 3152 | 701 | 6.9 | -0.1 | |||
| 2009-09-01T12:00 | 3158 | 701 | 6.8 | -0.1 | |||
| 2009-09-01T12:00 | 3166 | 700 | 6.8 | -0.1 | |||
| 2009-09-01T12:00 | 3191 | 698 | 6.6 | -0.2 | |||
| 2009-09-01T12:00 | 3196 | 697 | 6.5 | -0.2 | 237 | 8 | |
| 2009-09-01T12:00 | 3207 | 697 | 6.5 | -0.3 | |||
| 2009-09-01T12:00 | 3212 | 696 | 6.4 | -0.3 | |||
| 2009-09-01T12:00 | 3238 | 694 | 6.1 | -0.3 | |||
| 2009-09-01T12:00 | 3255 | 692 | 5.9 | -0.4 | |||
| 2009-09-01T12:00 | 3261 | 692 | 5.9 | -0.4 | |||
| 2009-09-01T12:00 | 3293 | 689 | 5.6 | -0.5 | |||
| 2009-09-01T12:00 | 3308 | 688 | 5.3 | -0.6 | |||
| 2009-09-01T12:00 | 3313 | 688 | 5.3 | -0.7 | |||
| 2009-09-01T12:00 | 3347 | 685 | 5.1 | -0.8 | |||
| 2009-09-01T12:00 | 3366 | 683 | 5.0 | -0.9 | |||
| 2009-09-01T12:00 | 3373 | 683 | 4.9 | -1.0 | |||
| 2009-09-01T12:00 | 3408 | 680 | 4.5 | -1.1 | |||
| 2009-09-01T12:00 | 3423 | 678 | 4.4 | -1.2 | |||
| 2009-09-01T12:00 | 3429 | 678 | 4.4 | -1.2 | |||
| 2009-09-01T12:00 | 3461 | 675 | 4.2 | -1.6 | |||
| 2009-09-01T12:00 | 3478 | 674 | 4.1 | -1.8 | |||
| 2009-09-01T12:00 | 3484 | 673 | 4.1 | -1.9 | |||
| 2009-09-01T12:00 | 3517 | 671 | 3.7 | -2.1 | |||
| 2009-09-01T12:00 | 3527 | 670 | 3.5 | -2.1 | 240 | 8 | |
| 2009-09-01T12:00 | 3537 | 669 | 3.5 | -2.2 | |||
| 2009-09-01T12:00 | 3564 | 667 | 3.2 | -2.5 | |||
| 2009-09-01T12:00 | 3580 | 665 | 3.0 | -2.7 | |||
| 2009-09-01T12:00 | 3586 | 665 | 3.0 | -2.8 | |||
| 2009-09-01T12:00 | 3618 | 662 | 2.8 | -3.6 | |||
| 2009-09-01T12:00 | 3634 | 661 | 2.8 | -4.0 | |||
| 2009-09-01T12:00 | 3639 | 661 | 2.8 | -4.1 | |||
| 2009-09-01T12:00 | 3671 | 658 | 2.6 | -4.6 | |||
| 2009-09-01T12:00 | 3687 | 657 | 2.3 | -4.8 | |||
| 2009-09-01T12:00 | 3693 | 656 | 2.3 | -4.9 | |||
| 2009-09-01T12:00 | 3730 | 653 | 2.0 | -4.8 | |||
| 2009-09-01T12:00 | 3750 | 652 | 1.8 | -4.7 | |||
| 2009-09-01T12:00 | 3756 | 651 | 1.7 | -4.7 | |||
| 2009-09-01T12:00 | 3792 | 648 | 1.4 | -4.1 | |||
| 2009-09-01T12:00 | 3809 | 647 | 1.3 | -3.8 | |||
| 2009-09-01T12:00 | 3814 | 646 | 1.1 | -3.7 | |||
| 2009-09-01T12:00 | 3849 | 644 | 1.1 | -3.3 | |||
| 2009-09-01T12:00 | 3868 | 642 | 1.0 | -3.0 | 241 | 9 | |
| 2009-09-01T12:00 | 3875 | 642 | 0.9 | -3.0 | |||
| 2009-09-01T12:00 | 3910 | 639 | 0.9 | -3.8 | |||
| 2009-09-01T12:00 | 3926 | 637 | 0.8 | -4.3 | |||
| 2009-09-01T12:00 | 3932 | 637 | 0.9 | -4.5 | |||
| 2009-09-01T12:00 | 3965 | 634 | 0.8 | -5.2 | |||
| 2009-09-01T12:00 | 3982 | 633 | 0.6 | -5.6 | |||
| 2009-09-01T12:00 | 3988 | 633 | 0.7 | -5.7 | |||
| 2009-09-01T12:00 | 4022 | 630 | 0.6 | -6.6 | |||
| 2009-09-01T12:00 | 4039 | 629 | 0.3 | -7.1 | |||
| 2009-09-01T12:00 | 4045 | 628 | 0.3 | -7.3 | |||
| 2009-09-01T12:00 | 4080 | 625 | 0.2 | -7.8 | |||
| 2009-09-01T12:00 | 4098 | 624 | 0.1 | -8.0 | |||
| 2009-09-01T12:00 | 4104 | 624 | 0.0 | -8.0 | |||
| 2009-09-01T12:00 | 4141 | 621 | -0.1 | -9.2 | |||
| 2009-09-01T12:00 | 4155 | 620 | -0.4 | -9.6 | |||
| 2009-09-01T12:00 | 4168 | 619 | -0.4 | -9.8 | |||
| 2009-09-01T12:00 | 4204 | 616 | -0.4 | -10.3 | |||
| 2009-09-01T12:00 | 4215 | 615 | -0.8 | -10.7 | |||
| 2009-09-01T12:00 | 4221 | 614 | -0.8 | -10.8 | 245 | 9 | |
| 2009-09-01T12:00 | 4227 | 614 | -0.9 | -11.0 | |||
| 2009-09-01T12:00 | 4262 | 611 | -1.0 | -11.5 | |||
| 2009-09-01T12:00 | 4274 | 610 | -1.2 | -11.8 | |||
| 2009-09-01T12:00 | 4286 | 609 | -1.3 | -12.0 | |||
| 2009-09-01T12:00 | 4322 | 607 | -1.6 | -12.7 | |||
| 2009-09-01T12:00 | 4333 | 606 | -1.6 | -12.7 | |||
| 2009-09-01T12:00 | 4345 | 605 | -1.7 | -13.0 | |||
| 2009-09-01T12:00 | 4378 | 602 | -1.9 | -13.7 | |||
| 2009-09-01T12:00 | 4388 | 602 | -2.0 | -13.9 | |||
| 2009-09-01T12:00 | 4399 | 601 | -2.1 | -14.2 | |||
| 2009-09-01T12:00 | 4410 | 600 | -2.1 | -14.4 | |||
| 2009-09-01T12:00 | 4435 | 598 | -2.2 | -15.1 | |||
| 2009-09-01T12:00 | 4456 | 597 | -2.4 | -15.8 | |||
| 2009-09-01T12:00 | 4463 | 596 | -2.3 | -15.9 | |||
| 2009-09-01T12:00 | 4501 | 593 | -2.6 | -17.1 | |||
| 2009-09-01T12:00 | 4518 | 592 | -2.7 | -17.5 | |||
| 2009-09-01T12:00 | 4523 | 592 | -2.7 | -17.7 | |||
| 2009-09-01T12:00 | 4559 | 589 | -3.2 | -18.7 | |||
| 2009-09-01T12:00 | 4578 | 587 | -3.2 | -19.1 | 235 | 10 | |
| 2009-09-01T12:00 | 4585 | 587 | -3.3 | -19.3 | |||
| 2009-09-01T12:00 | 4619 | 584 | -3.5 | -19.8 | |||
| 2009-09-01T12:00 | 4634 | 583 | -3.7 | -20.2 | |||
| 2009-09-01T12:00 | 4640 | 583 | -3.7 | -20.2 | |||
| 2009-09-01T12:00 | 4678 | 580 | -4.1 | -20.9 | |||
| 2009-09-01T12:00 | 4701 | 578 | -4.1 | -21.1 | |||
| 2009-09-01T12:00 | 4709 | 578 | -4.2 | -21.2 | |||
| 2009-09-01T12:00 | 4749 | 575 | -4.3 | -21.7 | |||
| 2009-09-01T12:00 | 4767 | 574 | -4.4 | -21.9 | |||
| 2009-09-01T12:00 | 4773 | 573 | -4.5 | -22.0 | |||
| 2009-09-01T12:00 | 4808 | 571 | -4.5 | -22.1 | |||
| 2009-09-01T12:00 | 4826 | 569 | -4.7 | -22.3 | |||
| 2009-09-01T12:00 | 4832 | 569 | -4.7 | -22.2 | |||
| 2009-09-01T12:00 | 4866 | 566 | -5.0 | -22.3 | |||
| 2009-09-01T12:00 | 4881 | 565 | -5.1 | -22.3 | |||
| 2009-09-01T12:00 | 4886 | 565 | -5.1 | -22.3 | |||
| 2009-09-01T12:00 | 4919 | 563 | -5.4 | -22.1 | |||
| 2009-09-01T12:00 | 4938 | 561 | -5.5 | -21.9 | 245 | 12 | |
| 2009-09-01T12:00 | 4951 | 560 | -5.6 | -21.7 | |||
| 2009-09-01T12:00 | 4988 | 558 | -5.8 | -21.3 | |||
| 2009-09-01T12:00 | 5007 | 556 | -5.9 | -21.1 | |||
| 2009-09-01T12:00 | 5013 | 556 | -6.0 | -21.1 | |||
| 2009-09-01T12:00 | 5052 | 553 | -6.2 | -21.0 | |||
| 2009-09-01T12:00 | 5073 | 552 | -6.3 | -21.2 | |||
| 2009-09-01T12:00 | 5079 | 551 | -6.5 | -21.3 | |||
| 2009-09-01T12:00 | 5116 | 549 | -6.5 | -21.6 | |||
| 2009-09-01T12:00 | 5132 | 547 | -6.7 | -22.0 | |||
| 2009-09-01T12:00 | 5137 | 547 | -6.6 | -21.9 | |||
| 2009-09-01T12:00 | 5171 | 545 | -6.6 | -22.3 | |||
| 2009-09-01T12:00 | 5188 | 544 | -6.8 | -22.7 | |||
| 2009-09-01T12:00 | 5194 | 543 | -6.8 | -22.7 | |||
| 2009-09-01T12:00 | 5228 | 541 | -7.0 | -23.0 | |||
| 2009-09-01T12:00 | 5245 | 540 | -7.0 | -22.9 | |||
| 2009-09-01T12:00 | 5250 | 539 | -7.1 | -23.0 | |||
| 2009-09-01T12:00 | 5284 | 537 | -7.2 | -22.6 | |||
| 2009-09-01T12:00 | 5296 | 536 | -7.2 | -22.4 | 237 | 12 | |
| 2009-09-01T12:00 | 5302 | 536 | -7.2 | -22.3 | |||
| 2009-09-01T12:00 | 5314 | 535 | -7.3 | -22.1 | |||
| 2009-09-01T12:00 | 5351 | 532 | -7.5 | -21.5 | |||
| 2009-09-01T12:00 | 5370 | 531 | -7.6 | -21.2 | |||
| 2009-09-01T12:00 | 5377 | 531 | -7.7 | -21.1 | |||
| 2009-09-01T12:00 | 5413 | 528 | -8.0 | -21.0 | |||
| 2009-09-01T12:00 | 5431 | 527 | -8.2 | -21.2 | |||
| 2009-09-01T12:00 | 5437 | 526 | -8.2 | -21.2 | |||
| 2009-09-01T12:00 | 5472 | 524 | -8.3 | -21.4 | |||
| 2009-09-01T12:00 | 5490 | 523 | -8.2 | -21.5 | |||
| 2009-09-01T12:00 | 5496 | 522 | -8.4 | -21.7 | |||
| 2009-09-01T12:00 | 5534 | 520 | -8.5 | -21.7 | |||
| 2009-09-01T12:00 | 5554 | 519 | -8.6 | -21.5 | |||
| 2009-09-01T12:00 | 5560 | 518 | -8.7 | -21.4 | |||
| 2009-09-01T12:00 | 5599 | 516 | -9.1 | -20.6 | |||
| 2009-09-01T12:00 | 5617 | 514 | -9.2 | -20.0 | |||
| 2009-09-01T12:00 | 5630 | 514 | -9.4 | -19.7 | |||
| 2009-09-01T12:00 | 5664 | 511 | -9.6 | -18.6 | 225 | 13 | |
| 2009-09-01T12:00 | 5679 | 510 | -9.7 | -18.2 | |||
| 2009-09-01T12:00 | 5685 | 510 | -9.8 | -18.1 | |||
| 2009-09-01T12:00 | 5719 | 508 | -9.9 | -17.4 | |||
| 2009-09-01T12:00 | 5737 | 506 | -9.9 | -17.0 | |||
| 2009-09-01T12:00 | 5743 | 506 | -10.3 | -17.2 | |||
| 2009-09-01T12:00 | 5778 | 504 | -10.3 | -16.9 | |||
| 2009-09-01T12:00 | 5794 | 503 | -10.4 | -16.9 | |||
| 2009-09-01T12:00 | 5800 | 502 | -10.5 | -17.0 | |||
| 2009-09-01T12:00 | 5835 | 500 | -10.8 | -17.4 | |||
| 2009-09-01T12:00 | 5853 | 499 | -11.0 | -17.8 | |||
| 2009-09-01T12:00 | 5866 | 498 | -11.0 | -18.0 | |||
| 2009-09-01T12:00 | 5905 | 495 | -11.2 | -18.8 | |||
| 2009-09-01T12:00 | 5925 | 494 | -11.4 | -19.3 | |||
| 2009-09-01T12:00 | 5932 | 494 | -11.4 | -19.5 | |||
| 2009-09-01T12:00 | 5971 | 491 | -11.7 | -20.8 | |||
| 2009-09-01T12:00 | 5991 | 490 | -11.9 | -21.5 | |||
| 2009-09-01T12:00 | 5997 | 490 | -11.9 | -21.8 | |||
| 2009-09-01T12:00 | 6028 | 488 | -12.1 | -23.0 | 215 | 14 | |
| 2009-09-01T12:00 | 6034 | 487 | -12.1 | -23.3 | |||
| 2009-09-01T12:00 | 6051 | 486 | -12.3 | -24.2 | |||
| 2009-09-01T12:00 | 6063 | 485 | -12.4 | -24.7 | |||
| 2009-09-01T12:00 | 6101 | 483 | -12.8 | -26.5 | |||
| 2009-09-01T12:00 | 6121 | 482 | -12.9 | -27.3 | |||
| 2009-09-01T12:00 | 6128 | 481 | -13.0 | -27.5 | |||
| 2009-09-01T12:00 | 6168 | 479 | -13.1 | -28.1 | |||
| 2009-09-01T12:00 | 6187 | 478 | -13.1 | -28.2 | |||
| 2009-09-01T12:00 | 6194 | 477 | -13.1 | -28.1 | |||
| 2009-09-01T12:00 | 6228 | 475 | -13.3 | -28.2 | |||
| 2009-09-01T12:00 | 6243 | 474 | -13.5 | -28.4 | |||
| 2009-09-01T12:00 | 6254 | 473 | -13.6 | -28.4 | |||
| 2009-09-01T12:00 | 6287 | 471 | -13.9 | -28.6 | |||
| 2009-09-01T12:00 | 6305 | 470 | -13.9 | -28.8 | |||
| 2009-09-01T12:00 | 6311 | 470 | -14.0 | -28.9 | |||
| 2009-09-01T12:00 | 6346 | 468 | -14.1 | -29.2 | |||
| 2009-09-01T12:00 | 6362 | 467 | -14.1 | -29.4 | |||
| 2009-09-01T12:00 | 6368 | 466 | -14.2 | -29.6 | |||
| 2009-09-01T12:00 | 6385 | 465 | -14.4 | -29.9 | 210 | 12 | |
| 2009-09-01T12:00 | 6402 | 464 | -14.6 | -30.2 | |||
| 2009-09-01T12:00 | 6420 | 463 | -14.6 | -30.5 | |||
| 2009-09-01T12:00 | 6431 | 462 | -14.6 | -30.6 | |||
| 2009-09-01T12:00 | 6470 | 460 | -14.8 | -31.5 | |||
| 2009-09-01T12:00 | 6491 | 459 | -14.9 | -32.1 | |||
| 2009-09-01T12:00 | 6498 | 458 | -15.0 | -32.2 | |||
| 2009-09-01T12:00 | 6535 | 456 | -15.1 | -33.0 | |||
| 2009-09-01T12:00 | 6551 | 455 | -15.0 | -33.2 | |||
| 2009-09-01T12:00 | 6557 | 455 | -15.0 | -33.3 | |||
| 2009-09-01T12:00 | 6601 | 452 | -15.2 | -33.9 | |||
| 2009-09-01T12:00 | 6623 | 451 | -15.4 | -34.1 | |||
| 2009-09-01T12:00 | 6631 | 450 | -15.5 | -34.2 | |||
| 2009-09-01T12:00 | 6670 | 448 | -15.9 | -34.6 | |||
| 2009-09-01T12:00 | 6688 | 447 | -16.0 | -34.8 | |||
| 2009-09-01T12:00 | 6693 | 447 | -16.0 | -34.9 | |||
| 2009-09-01T12:00 | 6732 | 444 | -16.5 | -35.6 | |||
| 2009-09-01T12:00 | 6754 | 443 | -16.6 | -36.1 | |||
| 2009-09-01T12:00 | 6770 | 442 | -16.7 | -36.4 | 212 | 12 | |
| 2009-09-01T12:00 | 6811 | 440 | -17.0 | -37.5 | |||
| 2009-09-01T12:00 | 6830 | 439 | -17.1 | -38.0 | |||
| 2009-09-01T12:00 | 6837 | 438 | -17.2 | -38.3 | |||
| 2009-09-01T12:00 | 6874 | 436 | -17.5 | -39.2 | |||
| 2009-09-01T12:00 | 6892 | 435 | -17.6 | -39.6 | |||
| 2009-09-01T12:00 | 6905 | 434 | -17.6 | -39.8 | |||
| 2009-09-01T12:00 | 6943 | 432 | -17.7 | -40.5 | |||
| 2009-09-01T12:00 | 6962 | 431 | -17.9 | -40.9 | |||
| 2009-09-01T12:00 | 6969 | 431 | -18.0 | -41.1 | |||
| 2009-09-01T12:00 | 7006 | 428 | -18.1 | -41.6 | |||
| 2009-09-01T12:00 | 7024 | 427 | -18.2 | -41.7 | |||
| 2009-09-01T12:00 | 7036 | 427 | -18.3 | -41.9 | |||
| 2009-09-01T12:00 | 7076 | 424 | -18.5 | -42.3 | |||
| 2009-09-01T12:00 | 7099 | 423 | -18.8 | -42.7 | |||
| 2009-09-01T12:00 | 7106 | 423 | -18.8 | -42.7 | |||
| 2009-09-01T12:00 | 7147 | 420 | -19.0 | -43.0 | |||
| 2009-09-01T12:00 | 7159 | 420 | -19.0 | -43.0 | 216 | 11 | |
| 2009-09-01T12:00 | 7165 | 419 | -19.0 | -43.0 | |||
| 2009-09-01T12:00 | 7177 | 419 | -19.2 | -43.0 | |||
| 2009-09-01T12:00 | 7215 | 417 | -19.5 | -43.2 | |||
| 2009-09-01T12:00 | 7234 | 415 | -19.6 | -43.2 | |||
| 2009-09-01T12:00 | 7241 | 415 | -19.7 | -43.3 | |||
| 2009-09-01T12:00 | 7283 | 413 | -19.9 | -43.3 | |||
| 2009-09-01T12:00 | 7316 | 411 | -20.2 | -43.3 | |||
| 2009-09-01T12:00 | 7324 | 410 | -20.3 | -43.4 | |||
| 2009-09-01T12:00 | 7370 | 408 | -20.6 | -43.5 | |||
| 2009-09-01T12:00 | 7390 | 407 | -20.8 | -43.6 | |||
| 2009-09-01T12:00 | 7397 | 406 | -20.9 | -43.6 | |||
| 2009-09-01T12:00 | 7447 | 404 | -21.1 | -43.5 | |||
| 2009-09-01T12:00 | 7469 | 402 | -21.3 | -43.3 | |||
| 2009-09-01T12:00 | 7476 | 402 | -21.4 | -43.3 | |||
| 2009-09-01T12:00 | 7514 | 400 | -21.6 | -42.8 | |||
| 2009-09-01T12:00 | 7521 | 400 | -21.7 | -42.7 | |||
| 2009-09-01T12:00 | 7543 | 398 | -22.0 | -42.5 | |||
| 2009-09-01T12:00 | 7558 | 398 | -22.0 | -42.3 | |||
| 2009-09-01T12:00 | 7585 | 396 | -22.4 | -42.0 | 224 | 12 | |
| 2009-09-01T12:00 | 7598 | 395 | -22.5 | -42.0 | |||
| 2009-09-01T12:00 | 7616 | 395 | -22.6 | -41.7 | |||
| 2009-09-01T12:00 | 7621 | 394 | -22.7 | -41.7 | |||
| 2009-09-01T12:00 | 7660 | 392 | -23.2 | -41.7 | |||
| 2009-09-01T12:00 | 7689 | 391 | -23.5 | -41.6 | |||
| 2009-09-01T12:00 | 7697 | 390 | -23.5 | -41.5 | |||
| 2009-09-01T12:00 | 7738 | 388 | -23.9 | -41.6 | |||
| 2009-09-01T12:00 | 7758 | 387 | -24.1 | -41.7 | |||
| 2009-09-01T12:00 | 7770 | 386 | -24.1 | -41.6 | |||
| 2009-09-01T12:00 | 7809 | 384 | -24.5 | -41.8 | |||
| 2009-09-01T12:00 | 7829 | 383 | -24.7 | -41.8 | |||
| 2009-09-01T12:00 | 7835 | 383 | -24.8 | -41.8 | |||
| 2009-09-01T12:00 | 7876 | 381 | -25.2 | -41.8 | |||
| 2009-09-01T12:00 | 7904 | 379 | -25.4 | -41.7 | |||
| 2009-09-01T12:00 | 7911 | 379 | -25.6 | -41.8 | |||
| 2009-09-01T12:00 | 7951 | 377 | -25.9 | -41.7 | |||
| 2009-09-01T12:00 | 7970 | 376 | -26.2 | -41.8 | |||
| 2009-09-01T12:00 | 7982 | 375 | -26.2 | -41.7 | 230 | 13 | |
| 2009-09-01T12:00 | 8022 | 373 | -26.5 | -41.6 | |||
| 2009-09-01T12:00 | 8043 | 372 | -26.8 | -41.7 | |||
| 2009-09-01T12:00 | 8049 | 372 | -26.9 | -41.7 | |||
| 2009-09-01T12:00 | 8099 | 369 | -27.2 | -41.6 | |||
| 2009-09-01T12:00 | 8121 | 368 | -27.4 | -41.5 | |||
| 2009-09-01T12:00 | 8129 | 368 | -27.5 | -41.6 | |||
| 2009-09-01T12:00 | 8174 | 365 | -27.9 | -41.7 | |||
| 2009-09-01T12:00 | 8205 | 364 | -28.1 | -41.7 | |||
| 2009-09-01T12:00 | 8212 | 363 | -28.1 | -41.8 | |||
| 2009-09-01T12:00 | 8256 | 361 | -28.5 | -42.0 | |||
| 2009-09-01T12:00 | 8277 | 360 | -28.7 | -42.2 | |||
| 2009-09-01T12:00 | 8291 | 359 | -28.8 | -42.2 | |||
| 2009-09-01T12:00 | 8334 | 357 | -29.0 | -42.5 | |||
| 2009-09-01T12:00 | 8355 | 356 | -29.3 | -42.7 | |||
| 2009-09-01T12:00 | 8369 | 355 | -29.3 | -42.8 | |||
| 2009-09-01T12:00 | 8411 | 353 | -29.7 | -43.5 | 245 | 11 | |
| 2009-09-01T12:00 | 8431 | 352 | -29.9 | -44.0 | |||
| 2009-09-01T12:00 | 8438 | 352 | -29.9 | -44.0 | |||
| 2009-09-01T12:00 | 8486 | 350 | -30.2 | -45.2 | |||
| 2009-09-01T12:00 | 8507 | 349 | -30.2 | -45.5 | |||
| 2009-09-01T12:00 | 8514 | 348 | -30.3 | -45.7 | |||
| 2009-09-01T12:00 | 8555 | 346 | -30.7 | -46.5 | |||
| 2009-09-01T12:00 | 8583 | 345 | -30.9 | -46.9 | |||
| 2009-09-01T12:00 | 8591 | 345 | -30.8 | -47.0 | |||
| 2009-09-01T12:00 | 8631 | 343 | -31.3 | -47.5 | |||
| 2009-09-01T12:00 | 8651 | 342 | -31.5 | -47.7 | |||
| 2009-09-01T12:00 | 8664 | 341 | -31.5 | -47.7 | |||
| 2009-09-01T12:00 | 8702 | 339 | -31.9 | -48.2 | |||
| 2009-09-01T12:00 | 8721 | 338 | -32.0 | -48.5 | |||
| 2009-09-01T12:00 | 8733 | 338 | -32.0 | -48.7 | |||
| 2009-09-01T12:00 | 8770 | 336 | -32.5 | -49.7 | |||
| 2009-09-01T12:00 | 8789 | 335 | -32.6 | -50.3 | |||
| 2009-09-01T12:00 | 8802 | 334 | -32.7 | -50.7 | |||
| 2009-09-01T12:00 | 8808 | 334 | -32.7 | -50.9 | 244 | 11 | |
| 2009-09-01T12:00 | 8840 | 333 | -32.9 | -52.0 | |||
| 2009-09-01T12:00 | 8860 | 332 | -33.0 | -52.7 | |||
| 2009-09-01T12:00 | 8873 | 331 | -33.2 | -53.2 | |||
| 2009-09-01T12:00 | 8912 | 329 | -33.5 | -54.5 | |||
| 2009-09-01T12:00 | 8933 | 328 | -33.4 | -55.0 | |||
| 2009-09-01T12:00 | 8939 | 328 | -33.6 | -55.3 | |||
| 2009-09-01T12:00 | 8990 | 326 | -33.6 | -55.7 | |||
| 2009-09-01T12:00 | 9015 | 324 | -33.7 | -55.3 | |||
| 2009-09-01T12:00 | 9023 | 324 | -33.7 | -55.0 | |||
| 2009-09-01T12:00 | 9078 | 322 | -33.9 | -53.0 | |||
| 2009-09-01T12:00 | 9101 | 320 | -34.1 | -52.2 | |||
| 2009-09-01T12:00 | 9109 | 320 | -34.2 | -51.9 | |||
| 2009-09-01T12:00 | 9155 | 318 | -34.6 | -50.8 | |||
| 2009-09-01T12:00 | 9188 | 317 | -34.8 | -50.2 | |||
| 2009-09-01T12:00 | 9196 | 316 | -34.9 | -50.1 | |||
| 2009-09-01T12:00 | 9242 | 314 | -35.2 | -49.6 | |||
| 2009-09-01T12:00 | 9249 | 314 | -35.3 | -49.5 | 244 | 10 | |
| 2009-09-01T12:00 | 9271 | 313 | -35.6 | -49.4 | |||
| 2009-09-01T12:00 | 9279 | 312 | -35.5 | -49.3 | |||
| 2009-09-01T12:00 | 9322 | 310 | -36.1 | -49.3 | |||
| 2009-09-01T12:00 | 9349 | 309 | -36.2 | -49.4 | |||
| 2009-09-01T12:00 | 9356 | 309 | -36.5 | -49.6 | |||
| 2009-09-01T12:00 | 9395 | 307 | -36.8 | -49.8 | |||
| 2009-09-01T12:00 | 9419 | 306 | -36.9 | -49.9 | |||
| 2009-09-01T12:00 | 9426 | 306 | -37.0 | -50.0 | |||
| 2009-09-01T12:00 | 9463 | 304 | -37.5 | -50.5 | |||
| 2009-09-01T12:00 | 9489 | 303 | -37.6 | -50.6 | |||
| 2009-09-01T12:00 | 9495 | 303 | -37.7 | -50.7 | |||
| 2009-09-01T12:00 | 9532 | 301 | -38.2 | -51.1 | |||
| 2009-09-01T12:00 | 9556 | 300 | -38.2 | -51.1 | |||
| 2009-09-01T12:00 | 9559 | 300 | -38.2 | -51.1 | |||
| 2009-09-01T12:00 | 9562 | 300 | -38.3 | -51.2 | |||
| 2009-09-01T12:00 | 9599 | 298 | -38.7 | -51.5 | |||
| 2009-09-01T12:00 | 9624 | 297 | -38.8 | -51.5 | |||
| 2009-09-01T12:00 | 9631 | 297 | -38.9 | -51.5 | |||
| 2009-09-01T12:00 | 9637 | 297 | -38.9 | -51.5 | 247 | 10 | |
| 2009-09-01T12:00 | 9672 | 295 | -39.2 | -51.6 | |||
| 2009-09-01T12:00 | 9702 | 294 | -39.3 | -51.4 | |||
| 2009-09-01T12:00 | 9709 | 294 | -39.4 | -51.5 | |||
| 2009-09-01T12:00 | 9753 | 292 | -40.1 | -52.1 | |||
| 2009-09-01T12:00 | 9781 | 290 | -40.0 | -52.0 | |||
| 2009-09-01T12:00 | 9789 | 290 | -40.2 | -52.3 | |||
| 2009-09-01T12:00 | 9837 | 288 | -40.6 | -53.0 | |||
| 2009-09-01T12:00 | 9857 | 287 | -40.7 | -53.3 | |||
| 2009-09-01T12:00 | 9864 | 287 | -40.9 | -53.5 | |||
| 2009-09-01T12:00 | 9909 | 285 | -41.0 | -53.9 | |||
| 2009-09-01T12:00 | 9929 | 284 | -41.2 | -54.1 | |||
| 2009-09-01T12:00 | 9941 | 284 | -41.4 | -54.3 | |||
| 2009-09-01T12:00 | 9982 | 282 | -41.6 | -54.4 | |||
| 2009-09-01T12:00 | 10003 | 281 | -41.8 | -54.5 | |||
| 2009-09-01T12:00 | 10017 | 281 | -41.9 | -54.6 | |||
| 2009-09-01T12:00 | 10053 | 279 | -42.2 | -54.8 | 248 | 8 | |
| 2009-09-01T12:00 | 10060 | 279 | -42.3 | -54.9 | |||
| 2009-09-01T12:00 | 10082 | 278 | -42.5 | -55.1 | |||
| 2009-09-01T12:00 | 10096 | 277 | -42.7 | -55.3 | |||
| 2009-09-01T12:00 | 10143 | 275 | -43.0 | -55.7 | |||
| 2009-09-01T12:00 | 10167 | 274 | -43.3 | -56.0 | |||
| 2009-09-01T12:00 | 10183 | 274 | -43.3 | -56.0 | |||
| 2009-09-01T12:00 | 10226 | 272 | -43.9 | -56.4 | |||
| 2009-09-01T12:00 | 10251 | 271 | -44.0 | -56.6 | |||
| 2009-09-01T12:00 | 10257 | 271 | -44.1 | -56.6 | |||
| 2009-09-01T12:00 | 10300 | 269 | -44.4 | -57.0 | |||
| 2009-09-01T12:00 | 10331 | 268 | -44.7 | -57.2 | |||
| 2009-09-01T12:00 | 10339 | 267 | -44.7 | -57.3 | |||
| 2009-09-01T12:00 | 10390 | 265 | -45.3 | -57.8 | |||
| 2009-09-01T12:00 | 10411 | 265 | -45.3 | -57.8 | |||
| 2009-09-01T12:00 | 10418 | 264 | -45.5 | -57.9 | |||
| 2009-09-01T12:00 | 10466 | 262 | -46.0 | -58.3 | |||
| 2009-09-01T12:00 | 10487 | 262 | -46.0 | -58.3 | 249 | 9 | |
| 2009-09-01T12:00 | 10501 | 261 | -46.2 | -58.4 | |||
| 2009-09-01T12:00 | 10541 | 259 | -46.5 | -58.8 | |||
| 2009-09-01T12:00 | 10560 | 259 | -46.6 | -58.9 | |||
| 2009-09-01T12:00 | 10573 | 258 | -46.6 | -59.0 | |||
| 2009-09-01T12:00 | 10615 | 257 | -47.0 | -59.5 | |||
| 2009-09-01T12:00 | 10646 | 255 | -47.0 | -59.7 | |||
| 2009-09-01T12:00 | 10653 | 255 | -47.3 | -59.9 | |||
| 2009-09-01T12:00 | 10695 | 253 | -47.7 | -60.5 | |||
| 2009-09-01T12:00 | 10721 | 252 | -47.7 | -60.6 | |||
| 2009-09-01T12:00 | 10727 | 252 | -47.6 | -60.5 | |||
| 2009-09-01T12:00 | 10775 | 250 | -48.0 | -60.9 | |||
| 2009-09-01T12:00 | 10785 | 250 | -48.0 | -60.9 | |||
| 2009-09-01T12:00 | 10797 | 250 | -48.0 | -60.9 | |||
| 2009-09-01T12:00 | 10812 | 249 | -48.0 | -60.8 | |||
| 2009-09-01T12:00 | 10857 | 247 | -48.2 | -60.9 | |||
| 2009-09-01T12:00 | 10881 | 246 | -48.3 | -60.9 | |||
| 2009-09-01T12:00 | 10896 | 246 | -48.5 | -61.0 | |||
| 2009-09-01T12:00 | 10911 | 245 | -48.6 | -61.1 | 232 | 12 | |
| 2009-09-01T12:00 | 10941 | 244 | -48.9 | -61.3 | |||
| 2009-09-01T12:00 | 10969 | 243 | -49.0 | -61.3 | |||
| 2009-09-01T12:00 | 10976 | 243 | -49.2 | -61.5 | |||
| 2009-09-01T12:00 | 11024 | 241 | -49.6 | -61.9 | |||
| 2009-09-01T12:00 | 11044 | 240 | -49.7 | -62.0 | |||
| 2009-09-01T12:00 | 11057 | 240 | -49.8 | -62.2 | |||
| 2009-09-01T12:00 | 11103 | 238 | -50.1 | -62.5 | |||
| 2009-09-01T12:00 | 11130 | 237 | -50.2 | -62.7 | |||
| 2009-09-01T12:00 | 11147 | 237 | -50.2 | -62.8 | |||
| 2009-09-01T12:00 | 11195 | 235 | -50.1 | -62.7 | |||
| 2009-09-01T12:00 | 11225 | 234 | -50.3 | -62.9 | |||
| 2009-09-01T12:00 | 11232 | 234 | -50.2 | -62.8 | |||
| 2009-09-01T12:00 | 11277 | 232 | -50.2 | -62.8 | |||
| 2009-09-01T12:00 | 11306 | 231 | -50.3 | -62.9 | |||
| 2009-09-01T12:00 | 11313 | 231 | -50.4 | -63.0 | |||
| 2009-09-01T12:00 | 11355 | 229 | -50.4 | -63.0 | 223 | 14 | |
| 2009-09-01T12:00 | 11362 | 229 | -50.4 | -63.0 | |||
| 2009-09-01T12:00 | 11382 | 228 | -50.7 | -63.2 | |||
| 2009-09-01T12:00 | 11395 | 228 | -50.5 | -63.1 | |||
| 2009-09-01T12:00 | 11437 | 226 | -50.1 | -62.8 | |||
| 2009-09-01T12:00 | 11468 | 225 | -50.2 | -63.0 | |||
| 2009-09-01T12:00 | 11476 | 225 | -50.3 | -63.1 | |||
| 2009-09-01T12:00 | 11519 | 223 | -50.6 | -63.3 | |||
| 2009-09-01T12:00 | 11546 | 223 | -50.7 | -63.5 | |||
| 2009-09-01T12:00 | 11552 | 222 | -50.9 | -63.6 | |||
| 2009-09-01T12:00 | 11601 | 221 | -51.1 | -63.8 | |||
| 2009-09-01T12:00 | 11623 | 220 | -51.3 | -64.0 | |||
| 2009-09-01T12:00 | 11638 | 219 | -51.3 | -63.9 | |||
| 2009-09-01T12:00 | 11681 | 218 | -51.6 | -64.2 | |||
| 2009-09-01T12:00 | 11701 | 217 | -51.5 | -64.1 | |||
| 2009-09-01T12:00 | 11715 | 217 | -51.7 | -64.2 | |||
| 2009-09-01T12:00 | 11754 | 216 | -52.0 | -64.5 | |||
| 2009-09-01T12:00 | 11772 | 215 | -52.2 | -64.7 | 231 | 16 | |
| 2009-09-01T12:00 | 11779 | 215 | -52.2 | -64.7 | |||
| 2009-09-01T12:00 | 11785 | 215 | -52.2 | -64.6 | |||
| 2009-09-01T12:00 | 11829 | 213 | -52.3 | -64.8 | |||
| 2009-09-01T12:00 | 11849 | 212 | -52.3 | -64.8 | |||
| 2009-09-01T12:00 | 11862 | 212 | -52.3 | -64.8 | |||
| 2009-09-01T12:00 | 11904 | 211 | -52.7 | -65.1 | |||
| 2009-09-01T12:00 | 11934 | 210 | -53.0 | -65.3 | |||
| 2009-09-01T12:00 | 11941 | 209 | -53.1 | -65.4 | |||
| 2009-09-01T12:00 | 11982 | 208 | -53.1 | -65.3 | |||
| 2009-09-01T12:00 | 12006 | 207 | -53.2 | -65.5 | |||
| 2009-09-01T12:00 | 12011 | 207 | -53.4 | -65.6 | |||
| 2009-09-01T12:00 | 12053 | 206 | -53.6 | -65.8 | |||
| 2009-09-01T12:00 | 12071 | 205 | -53.8 | -66.0 | |||
| 2009-09-01T12:00 | 12083 | 205 | -53.8 | -66.0 | |||
| 2009-09-01T12:00 | 12125 | 203 | -53.9 | -66.2 | |||
| 2009-09-01T12:00 | 12157 | 202 | -53.9 | -66.3 | |||
| 2009-09-01T12:00 | 12165 | 202 | -53.8 | -66.2 | |||
| 2009-09-01T12:00 | 12173 | 202 | -53.8 | -66.2 | 225 | 19 | |
| 2009-09-01T12:00 | 12221 | 200 | -53.5 | -65.9 | |||
| 2009-09-01T12:00 | 12236 | 200 | -53.4 | -66.3 | |||
| 2009-09-01T12:00 | 12245 | 200 | -53.3 | ||||
| 2009-09-01T12:00 | 12261 | 199 | -53.3 | ||||
| 2009-09-01T12:00 | 12307 | 198 | -53.4 | ||||
| 2009-09-01T12:00 | 12329 | 197 | -53.5 | ||||
| 2009-09-01T12:00 | 12344 | 197 | -53.4 | ||||
| 2009-09-01T12:00 | 12387 | 195 | -53.8 | ||||
| 2009-09-01T12:00 | 12414 | 195 | -54.0 | ||||
| 2009-09-01T12:00 | 12420 | 194 | -54.1 | ||||
| 2009-09-01T12:00 | 12471 | 193 | -54.1 | ||||
| 2009-09-01T12:00 | 12494 | 192 | -54.3 | ||||
| 2009-09-01T12:00 | 12510 | 192 | -54.3 | ||||
| 2009-09-01T12:00 | 12556 | 190 | -55.0 | ||||
| 2009-09-01T12:00 | 12578 | 190 | -55.1 | ||||
| 2009-09-01T12:00 | 12592 | 189 | -55.0 | ||||
| 2009-09-01T12:00 | 12620 | 188 | -55.2 | 221 | 15 | ||
| 2009-09-01T12:00 | 12634 | 188 | -55.4 | ||||
| 2009-09-01T12:00 | 12661 | 187 | -55.5 | ||||
| 2009-09-01T12:00 | 12667 | 187 | -55.6 | ||||
| 2009-09-01T12:00 | 12715 | 186 | -55.7 | ||||
| 2009-09-01T12:00 | 12736 | 185 | -55.8 | ||||
| 2009-09-01T12:00 | 12750 | 185 | -55.9 | ||||
| 2009-09-01T12:00 | 12786 | 184 | -55.9 | ||||
| 2009-09-01T12:00 | 12805 | 183 | -55.5 | ||||
| 2009-09-01T12:00 | 12810 | 183 | -55.5 | ||||
| 2009-09-01T12:00 | 12846 | 182 | -55.7 | ||||
| 2009-09-01T12:00 | 12864 | 181 | -55.9 | ||||
| 2009-09-01T12:00 | 12876 | 181 | -55.9 | ||||
| 2009-09-01T12:00 | 12916 | 180 | -56.2 | ||||
| 2009-09-01T12:00 | 12938 | 179 | -56.4 | ||||
| 2009-09-01T12:00 | 12952 | 179 | -56.8 | ||||
| 2009-09-01T12:00 | 12988 | 178 | -56.3 | ||||
| 2009-09-01T12:00 | 12993 | 178 | -56.3 | 215 | 14 | ||
| 2009-09-01T12:00 | 13008 | 177 | -56.2 | ||||
| 2009-09-01T12:00 | 13013 | 177 | -56.2 | ||||
| 2009-09-01T12:00 | 13050 | 176 | -56.3 | ||||
| 2009-09-01T12:00 | 13068 | 176 | -56.2 | ||||
| 2009-09-01T12:00 | 13080 | 175 | -56.3 | ||||
| 2009-09-01T12:00 | 13114 | 174 | -56.6 | ||||
| 2009-09-01T12:00 | 13135 | 174 | -56.7 | ||||
| 2009-09-01T12:00 | 13140 | 174 | -56.6 | ||||
| 2009-09-01T12:00 | 13176 | 173 | -57.0 | ||||
| 2009-09-01T12:00 | 13191 | 172 | -57.2 | ||||
| 2009-09-01T12:00 | 13200 | 172 | -57.2 | ||||
| 2009-09-01T12:00 | 13231 | 171 | -57.5 | ||||
| 2009-09-01T12:00 | 13253 | 170 | -57.5 | ||||
| 2009-09-01T12:00 | 13258 | 170 | -57.5 | ||||
| 2009-09-01T12:00 | 13290 | 170 | -58.0 | ||||
| 2009-09-01T12:00 | 13310 | 169 | -57.7 | 214 | 16 | ||
| 2009-09-01T12:00 | 13320 | 169 | -57.9 | ||||
| 2009-09-01T12:00 | 13350 | 168 | -58.1 | ||||
| 2009-09-01T12:00 | 13365 | 167 | -58.2 | ||||
| 2009-09-01T12:00 | 13375 | 167 | -58.2 | ||||
| 2009-09-01T12:00 | 13404 | 166 | -58.6 | ||||
| 2009-09-01T12:00 | 13421 | 166 | -58.5 | ||||
| 2009-09-01T12:00 | 13425 | 166 | -58.7 | ||||
| 2009-09-01T12:00 | 13460 | 165 | -58.8 | ||||
| 2009-09-01T12:00 | 13477 | 165 | -58.8 | ||||
| 2009-09-01T12:00 | 13489 | 164 | -59.0 | ||||
| 2009-09-01T12:00 | 13521 | 163 | -58.8 | ||||
| 2009-09-01T12:00 | 13541 | 163 | -58.8 | ||||
| 2009-09-01T12:00 | 13546 | 163 | -58.9 | ||||
| 2009-09-01T12:00 | 13587 | 162 | -59.2 | ||||
| 2009-09-01T12:00 | 13607 | 161 | -59.2 | ||||
| 2009-09-01T12:00 | 13621 | 161 | -59.2 | ||||
| 2009-09-01T12:00 | 13627 | 161 | -59.2 | 213 | 16 | ||
| 2009-09-01T12:00 | 13658 | 160 | -59.3 | ||||
| 2009-09-01T12:00 | 13679 | 159 | -59.5 | ||||
| 2009-09-01T12:00 | 13685 | 159 | -59.5 | ||||
| 2009-09-01T12:00 | 13722 | 158 | -59.7 | ||||
| 2009-09-01T12:00 | 13738 | 158 | -59.8 | ||||
| 2009-09-01T12:00 | 13749 | 158 | -59.7 | ||||
| 2009-09-01T12:00 | 13779 | 157 | -59.8 | ||||
| 2009-09-01T12:00 | 13800 | 156 | -59.9 | ||||
| 2009-09-01T12:00 | 13805 | 156 | -59.9 | ||||
| 2009-09-01T12:00 | 13837 | 155 | -59.9 | ||||
| 2009-09-01T12:00 | 13849 | 155 | -60.0 | ||||
| 2009-09-01T12:00 | 13858 | 155 | -60.0 | ||||
| 2009-09-01T12:00 | 13885 | 154 | -60.2 | ||||
| 2009-09-01T12:00 | 13904 | 154 | -60.2 | ||||
| 2009-09-01T12:00 | 13908 | 154 | -60.2 | ||||
| 2009-09-01T12:00 | 13927 | 153 | -60.4 | 208 | 15 | ||
| 2009-09-01T12:00 | 13940 | 153 | -60.5 | ||||
| 2009-09-01T12:00 | 13954 | 152 | -60.4 | ||||
| 2009-09-01T12:00 | 13963 | 152 | -60.5 | ||||
| 2009-09-01T12:00 | 13992 | 152 | -60.6 |
Only the first 2000 rows were shown. To view the complete dataset, download it as tab-delimited text. You can still view the full matrix in your browser, but be aware that this may crash the browser due to the huge size.
